<?xml version="1.0" encoding="UTF-8"?>
<gpx  version="1.1"  creator="Verlag Esterbauer" xmlns:xsi="http://www.w3.org/2001/XMLSchema-instance" xmlns="http://www.topografix.com/GPX/1/1"  xsi:schemaLocation="http://www.topografix.com/GPX/1/1 http://www.topografix.com/GPX/1/1/gpx.xsd">
<metadata>
  <time>2016-07-05T13:43:38Z</time>
</metadata>
<trk>
  <name>rhe2#01_1</name>
  <cmt>by Verlag Esterbauer</cmt>
  <trkseg>
    <trkpt lat="47.54771889" lon="7.58968917">
    <ele>288</ele>
    <time>2016-07-01T07:00:00Z</time>
    </trkpt>
    <trkpt lat="47.54748473" lon="7.59035417">
    <ele>286</ele>
    <time>2016-07-01T07:00:12Z</time>
    </trkpt>
    <trkpt lat="47.54722973" lon="7.59108445">
    <ele>280</ele>
    <time>2016-07-01T07:00:25Z</time>
    </trkpt>
    <trkpt lat="47.54727195" lon="7.59100362">
    <ele>280</ele>
    <time>2016-07-01T07:00:27Z</time>
    </trkpt>
    <trkpt lat="47.54732862" lon="7.59120973">
    <ele>278</ele>
    <time>2016-07-01T07:00:30Z</time>
    </trkpt>
    <trkpt lat="47.54755584" lon="7.59120362">
    <ele>279</ele>
    <time>2016-07-01T07:00:36Z</time>
    </trkpt>
    <trkpt lat="47.54806306" lon="7.59109417">
    <ele>285</ele>
    <time>2016-07-01T07:00:48Z</time>
    </trkpt>
    <trkpt lat="47.54853889" lon="7.59104945">
    <ele>284</ele>
    <time>2016-07-01T07:00:59Z</time>
    </trkpt>
    <trkpt lat="47.54852806" lon="7.59104973">
    <ele>284</ele>
    <time>2016-07-01T07:00:59Z</time>
    </trkpt>
    <trkpt lat="47.54879112" lon="7.59133056">
    <ele>282</ele>
    <time>2016-07-01T07:01:07Z</time>
    </trkpt>
    <trkpt lat="47.54890778" lon="7.59113556">
    <ele>282</ele>
    <time>2016-07-01T07:01:11Z</time>
    </trkpt>
    <trkpt lat="47.54897195" lon="7.59106973">
    <ele>283</ele>
    <time>2016-07-01T07:01:13Z</time>
    </trkpt>
    <trkpt lat="47.54896584" lon="7.59112806">
    <ele>282</ele>
    <time>2016-07-01T07:01:14Z</time>
    </trkpt>
    <trkpt lat="47.54928028" lon="7.59153334">
    <ele>285</ele>
    <time>2016-07-01T07:01:23Z</time>
    </trkpt>
    <trkpt lat="47.54948945" lon="7.59172167">
    <ele>287</ele>
    <time>2016-07-01T07:01:29Z</time>
    </trkpt>
    <trkpt lat="47.54949751" lon="7.59166973">
    <ele>287</ele>
    <time>2016-07-01T07:01:30Z</time>
    </trkpt>
    <trkpt lat="47.55025917" lon="7.59271695">
    <ele>283</ele>
    <time>2016-07-01T07:01:55Z</time>
    </trkpt>
    <trkpt lat="47.55019195" lon="7.59265834">
    <ele>283</ele>
    <time>2016-07-01T07:01:56Z</time>
    </trkpt>
    <trkpt lat="47.55046584" lon="7.59230889">
    <ele>283</ele>
    <time>2016-07-01T07:02:05Z</time>
    </trkpt>
    <trkpt lat="47.55069473" lon="7.59243417">
    <ele>283</ele>
    <time>2016-07-01T07:02:11Z</time>
    </trkpt>
    <trkpt lat="47.55069473" lon="7.59243417">
    <ele>283</ele>
    <time>2016-07-01T07:02:11Z</time>
    </trkpt>
    <trkpt lat="47.5515075" lon="7.59344695">
    <ele>282</ele>
    <time>2016-07-01T07:02:36Z</time>
    </trkpt>
    <trkpt lat="47.55183889" lon="7.59270695">
    <ele>282</ele>
    <time>2016-07-01T07:02:50Z</time>
    </trkpt>
    <trkpt lat="47.55244362" lon="7.59345278">
    <ele>281</ele>
    <time>2016-07-01T07:03:08Z</time>
    </trkpt>
    <trkpt lat="47.55244362" lon="7.59345278">
    <ele>281</ele>
    <time>2016-07-01T07:03:08Z</time>
    </trkpt>
    <trkpt lat="47.55368695" lon="7.59222417">
    <ele>287</ele>
    <time>2016-07-01T07:03:44Z</time>
    </trkpt>
    <trkpt lat="47.55390584" lon="7.59201167">
    <ele>286</ele>
    <time>2016-07-01T07:03:50Z</time>
    </trkpt>
    <trkpt lat="47.55390584" lon="7.59201167">
    <ele>286</ele>
    <time>2016-07-01T07:03:50Z</time>
    </trkpt>
    <trkpt lat="47.55414028" lon="7.59295639">
    <ele>291</ele>
    <time>2016-07-01T07:04:06Z</time>
    </trkpt>
    <trkpt lat="47.55464195" lon="7.59453056">
    <ele>283</ele>
    <time>2016-07-01T07:04:34Z</time>
    </trkpt>
    <trkpt lat="47.554795" lon="7.59450112">
    <ele>282</ele>
    <time>2016-07-01T07:04:37Z</time>
    </trkpt>
    <trkpt lat="47.55504084" lon="7.59374223">
    <ele>283</ele>
    <time>2016-07-01T07:04:51Z</time>
    </trkpt>
    <trkpt lat="47.55536028" lon="7.59328639">
    <ele>283</ele>
    <time>2016-07-01T07:05:01Z</time>
    </trkpt>
    <trkpt lat="47.55576806" lon="7.59281862">
    <ele>281</ele>
    <time>2016-07-01T07:05:13Z</time>
    </trkpt>
    <trkpt lat="47.55600723" lon="7.59248695">
    <ele>281</ele>
    <time>2016-07-01T07:05:21Z</time>
    </trkpt>
    <trkpt lat="47.55613056" lon="7.59218362">
    <ele>281</ele>
    <time>2016-07-01T07:05:27Z</time>
    </trkpt>
    <trkpt lat="47.55621223" lon="7.59188278">
    <ele>281</ele>
    <time>2016-07-01T07:05:32Z</time>
    </trkpt>
    <trkpt lat="47.55615778" lon="7.59188473">
    <ele>281</ele>
    <time>2016-07-01T07:05:33Z</time>
    </trkpt>
    <trkpt lat="47.55689834" lon="7.59111639">
    <ele>279</ele>
    <time>2016-07-01T07:05:54Z</time>
    </trkpt>
    <trkpt lat="47.55722251" lon="7.59104056">
    <ele>277</ele>
    <time>2016-07-01T07:06:02Z</time>
    </trkpt>
    <trkpt lat="47.55799667" lon="7.5902125">
    <ele>271</ele>
    <time>2016-07-01T07:06:25Z</time>
    </trkpt>
    <trkpt lat="47.55855612" lon="7.58950195">
    <ele>267</ele>
    <time>2016-07-01T07:06:42Z</time>
    </trkpt>
    <trkpt lat="47.55915195" lon="7.58888528">
    <ele>263</ele>
    <time>2016-07-01T07:06:59Z</time>
    </trkpt>
    <trkpt lat="47.55963" lon="7.58839139">
    <ele>259</ele>
    <time>2016-07-01T07:07:13Z</time>
    </trkpt>
    <trkpt lat="47.55963778" lon="7.58839139">
    <ele>259</ele>
    <time>2016-07-01T07:07:13Z</time>
    </trkpt>
    <trkpt lat="47.55990473" lon="7.58796751">
    <ele>260</ele>
    <time>2016-07-01T07:07:22Z</time>
    </trkpt>
    <trkpt lat="47.56019278" lon="7.58761306">
    <ele>261</ele>
    <time>2016-07-01T07:07:31Z</time>
    </trkpt>
    <trkpt lat="47.56058723" lon="7.58725223">
    <ele>260</ele>
    <time>2016-07-01T07:07:42Z</time>
    </trkpt>
    <trkpt lat="47.56100195" lon="7.58683973">
    <ele>262</ele>
    <time>2016-07-01T07:07:54Z</time>
    </trkpt>
    <trkpt lat="47.56120139" lon="7.58655612">
    <ele>263</ele>
    <time>2016-07-01T07:08:00Z</time>
    </trkpt>
    <trkpt lat="47.56153139" lon="7.58602695">
    <ele>265</ele>
    <time>2016-07-01T07:08:12Z</time>
    </trkpt>
    <trkpt lat="47.56152806" lon="7.58597195">
    <ele>265</ele>
    <time>2016-07-01T07:08:13Z</time>
    </trkpt>
    <trkpt lat="47.56191584" lon="7.58479167">
    <ele>269</ele>
    <time>2016-07-01T07:08:33Z</time>
    </trkpt>
    <trkpt lat="47.56203917" lon="7.58452362">
    <ele>269</ele>
    <time>2016-07-01T07:08:39Z</time>
    </trkpt>
    <trkpt lat="47.56256973" lon="7.58375973">
    <ele>268</ele>
    <time>2016-07-01T07:08:56Z</time>
    </trkpt>
    <trkpt lat="47.56346278" lon="7.58269445">
    <ele>265</ele>
    <time>2016-07-01T07:09:23Z</time>
    </trkpt>
    <trkpt lat="47.56348917" lon="7.58264">
    <ele>265</ele>
    <time>2016-07-01T07:09:24Z</time>
    </trkpt>
    <trkpt lat="47.56408862" lon="7.58328778">
    <ele>272</ele>
    <time>2016-07-01T07:09:42Z</time>
    </trkpt>
    <trkpt lat="47.56436751" lon="7.58373584">
    <ele>265</ele>
    <time>2016-07-01T07:09:51Z</time>
    </trkpt>
    <trkpt lat="47.56440639" lon="7.58373473">
    <ele>265</ele>
    <time>2016-07-01T07:09:52Z</time>
    </trkpt>
    <trkpt lat="47.56542195" lon="7.58289334">
    <ele>265</ele>
    <time>2016-07-01T07:10:20Z</time>
    </trkpt>
    <trkpt lat="47.56593056" lon="7.58224667">
    <ele>266</ele>
    <time>2016-07-01T07:10:35Z</time>
    </trkpt>
    <trkpt lat="47.56691473" lon="7.58145417">
    <ele>264</ele>
    <time>2016-07-01T07:11:02Z</time>
    </trkpt>
    <trkpt lat="47.56944195" lon="7.57911139">
    <ele>266</ele>
    <time>2016-07-01T07:12:12Z</time>
    </trkpt>
    <trkpt lat="47.57082334" lon="7.57794862">
    <ele>263</ele>
    <time>2016-07-01T07:12:49Z</time>
    </trkpt>
    <trkpt lat="47.57245639" lon="7.57650723">
    <ele>271</ele>
    <time>2016-07-01T07:13:34Z</time>
    </trkpt>
    <trkpt lat="47.57246501" lon="7.57645167">
    <ele>271</ele>
    <time>2016-07-01T07:13:35Z</time>
    </trkpt>
    <trkpt lat="47.57467639" lon="7.57420362">
    <ele>270</ele>
    <time>2016-07-01T07:14:38Z</time>
    </trkpt>
    <trkpt lat="47.57574028" lon="7.57314362">
    <ele>270</ele>
    <time>2016-07-01T07:15:09Z</time>
    </trkpt>
    <trkpt lat="47.57614389" lon="7.57287889">
    <ele>271</ele>
    <time>2016-07-01T07:15:19Z</time>
    </trkpt>
    <trkpt lat="47.57614389" lon="7.57287889">
    <ele>271</ele>
    <time>2016-07-01T07:15:19Z</time>
    </trkpt>
    <trkpt lat="47.57578028" lon="7.57451667">
    <ele>268</ele>
    <time>2016-07-01T07:15:46Z</time>
    </trkpt>
    <trkpt lat="47.57614862" lon="7.57486334">
    <ele>274</ele>
    <time>2016-07-01T07:15:57Z</time>
    </trkpt>
    <trkpt lat="47.57612417" lon="7.57502945">
    <ele>273</ele>
    <time>2016-07-01T07:15:59Z</time>
    </trkpt>
    <trkpt lat="47.57616695" lon="7.57530584">
    <ele>270</ele>
    <time>2016-07-01T07:16:04Z</time>
    </trkpt>
    <trkpt lat="47.57631639" lon="7.57537112">
    <ele>271</ele>
    <time>2016-07-01T07:16:08Z</time>
    </trkpt>
    <trkpt lat="47.57654445" lon="7.57648834">
    <ele>263</ele>
    <time>2016-07-01T07:16:26Z</time>
    </trkpt>
    <trkpt lat="47.57652084" lon="7.57654362">
    <ele>263</ele>
    <time>2016-07-01T07:16:27Z</time>
    </trkpt>
    <trkpt lat="47.57665084" lon="7.57682223">
    <ele>261</ele>
    <time>2016-07-01T07:16:33Z</time>
    </trkpt>
    <trkpt lat="47.57662834" lon="7.57675889">
    <ele>261</ele>
    <time>2016-07-01T07:16:34Z</time>
    </trkpt>
    <trkpt lat="47.57676834" lon="7.57670723">
    <ele>261</ele>
    <time>2016-07-01T07:16:37Z</time>
    </trkpt>
    <trkpt lat="47.57673556" lon="7.57676084">
    <ele>261</ele>
    <time>2016-07-01T07:16:38Z</time>
    </trkpt>
    <trkpt lat="47.57687945" lon="7.57692806">
    <ele>261</ele>
    <time>2016-07-01T07:16:43Z</time>
    </trkpt>
    <trkpt lat="47.57714139" lon="7.57711278">
    <ele>262</ele>
    <time>2016-07-01T07:16:49Z</time>
    </trkpt>
    <trkpt lat="47.57771639" lon="7.57722528">
    <ele>259</ele>
    <time>2016-07-01T07:17:03Z</time>
    </trkpt>
    <trkpt lat="47.57810612" lon="7.57733639">
    <ele>255</ele>
    <time>2016-07-01T07:17:12Z</time>
    </trkpt>
    <trkpt lat="47.57842417" lon="7.57755778">
    <ele>253</ele>
    <time>2016-07-01T07:17:21Z</time>
    </trkpt>
    <trkpt lat="47.57889639" lon="7.57766278">
    <ele>252</ele>
    <time>2016-07-01T07:17:32Z</time>
    </trkpt>
    <trkpt lat="47.57962556" lon="7.57783334">
    <ele>258</ele>
    <time>2016-07-01T07:17:49Z</time>
    </trkpt>
    <trkpt lat="47.58007667" lon="7.57816889">
    <ele>258</ele>
    <time>2016-07-01T07:18:01Z</time>
    </trkpt>
    <trkpt lat="47.58024389" lon="7.57810612">
    <ele>258</ele>
    <time>2016-07-01T07:18:05Z</time>
    </trkpt>
    <trkpt lat="47.58022167" lon="7.57804278">
    <ele>258</ele>
    <time>2016-07-01T07:18:06Z</time>
    </trkpt>
    <trkpt lat="47.58055028" lon="7.57772556">
    <ele>257</ele>
    <time>2016-07-01T07:18:16Z</time>
    </trkpt>
    <trkpt lat="47.58073917" lon="7.57747917">
    <ele>257</ele>
    <time>2016-07-01T07:18:22Z</time>
    </trkpt>
    <trkpt lat="47.58128612" lon="7.57707056">
    <ele>263</ele>
    <time>2016-07-01T07:18:36Z</time>
    </trkpt>
    <trkpt lat="47.58223917" lon="7.57694834">
    <ele>256</ele>
    <time>2016-07-01T07:18:58Z</time>
    </trkpt>
    <trkpt lat="47.58230028" lon="7.57740584">
    <ele>256</ele>
    <time>2016-07-01T07:19:06Z</time>
    </trkpt>
    <trkpt lat="47.58271167" lon="7.57762584">
    <ele>255</ele>
    <time>2016-07-01T07:19:16Z</time>
    </trkpt>
    <trkpt lat="47.58305001" lon="7.57792862">
    <ele>256</ele>
    <time>2016-07-01T07:19:26Z</time>
    </trkpt>
    <trkpt lat="47.58349973" lon="7.57844528">
    <ele>256</ele>
    <time>2016-07-01T07:19:39Z</time>
    </trkpt>
    <trkpt lat="47.58447973" lon="7.57856862">
    <ele>255</ele>
    <time>2016-07-01T07:20:02Z</time>
    </trkpt>
    <trkpt lat="47.58447973" lon="7.57856862">
    <ele>255</ele>
    <time>2016-07-01T07:20:02Z</time>
    </trkpt>
    <trkpt lat="47.58452417" lon="7.57839889">
    <ele>255</ele>
    <time>2016-07-01T07:20:05Z</time>
    </trkpt>
    <trkpt lat="47.58511084" lon="7.5783">
    <ele>254</ele>
    <time>2016-07-01T07:20:19Z</time>
    </trkpt>
    <trkpt lat="47.58550889" lon="7.57830278">
    <ele>254</ele>
    <time>2016-07-01T07:20:28Z</time>
    </trkpt>
    <trkpt lat="47.58560556" lon="7.57850834">
    <ele>254</ele>
    <time>2016-07-01T07:20:32Z</time>
    </trkpt>
    <trkpt lat="47.58561639" lon="7.57852389">
    <ele>254</ele>
    <time>2016-07-01T07:20:33Z</time>
    </trkpt>
    <trkpt lat="47.58590834" lon="7.578315">
    <ele>253</ele>
    <time>2016-07-01T07:20:40Z</time>
    </trkpt>
    <trkpt lat="47.58623584" lon="7.57838445">
    <ele>254</ele>
    <time>2016-07-01T07:20:48Z</time>
    </trkpt>
    <trkpt lat="47.58626973" lon="7.57869528">
    <ele>253</ele>
    <time>2016-07-01T07:20:53Z</time>
    </trkpt>
    <trkpt lat="47.58650334" lon="7.57882556">
    <ele>252</ele>
    <time>2016-07-01T07:20:59Z</time>
    </trkpt>
    <trkpt lat="47.58645139" lon="7.57889945">
    <ele>251</ele>
    <time>2016-07-01T07:21:01Z</time>
    </trkpt>
    <trkpt lat="47.5862875" lon="7.57924362">
    <ele>252</ele>
    <time>2016-07-01T07:21:07Z</time>
    </trkpt>
    <trkpt lat="47.58531362" lon="7.58171362">
    <ele>255</ele>
    <time>2016-07-01T07:21:53Z</time>
    </trkpt>
    <trkpt lat="47.58521056" lon="7.58200473">
    <ele>256</ele>
    <time>2016-07-01T07:21:58Z</time>
    </trkpt>
    <trkpt lat="47.5851475" lon="7.58248528">
    <ele>254</ele>
    <time>2016-07-01T07:22:06Z</time>
    </trkpt>
    <trkpt lat="47.58513945" lon="7.58255028">
    <ele>253</ele>
    <time>2016-07-01T07:22:07Z</time>
    </trkpt>
    <trkpt lat="47.5850575" lon="7.58276751">
    <ele>253</ele>
    <time>2016-07-01T07:22:11Z</time>
    </trkpt>
    <trkpt lat="47.58507639" lon="7.58317278">
    <ele>252</ele>
    <time>2016-07-01T07:22:17Z</time>
    </trkpt>
    <trkpt lat="47.58512139" lon="7.58428195">
    <ele>252</ele>
    <time>2016-07-01T07:22:35Z</time>
    </trkpt>
    <trkpt lat="47.58514917" lon="7.58470723">
    <ele>253</ele>
    <time>2016-07-01T07:22:42Z</time>
    </trkpt>
    <trkpt lat="47.58554473" lon="7.58491362">
    <ele>254</ele>
    <time>2016-07-01T07:22:52Z</time>
    </trkpt>
    <trkpt lat="47.58629639" lon="7.58527195">
    <ele>253</ele>
    <time>2016-07-01T07:23:10Z</time>
    </trkpt>
    <trkpt lat="47.58686445" lon="7.58556917">
    <ele>253</ele>
    <time>2016-07-01T07:23:24Z</time>
    </trkpt>
    <trkpt lat="47.58710778" lon="7.58563889">
    <ele>251</ele>
    <time>2016-07-01T07:23:30Z</time>
    </trkpt>
    <trkpt lat="47.58724862" lon="7.58546139">
    <ele>250</ele>
    <time>2016-07-01T07:23:35Z</time>
    </trkpt>
    <trkpt lat="47.58748278" lon="7.58512806">
    <ele>251</ele>
    <time>2016-07-01T07:23:42Z</time>
    </trkpt>
    <trkpt lat="47.58767806" lon="7.58487112">
    <ele>252</ele>
    <time>2016-07-01T07:23:48Z</time>
    </trkpt>
    <trkpt lat="47.58782806" lon="7.58460723">
    <ele>250</ele>
    <time>2016-07-01T07:23:54Z</time>
    </trkpt>
    <trkpt lat="47.58781112" lon="7.58467306">
    <ele>250</ele>
    <time>2016-07-01T07:23:55Z</time>
    </trkpt>
    <trkpt lat="47.58775084" lon="7.58486195">
    <ele>252</ele>
    <time>2016-07-01T07:23:58Z</time>
    </trkpt>
    <trkpt lat="47.58778778" lon="7.58512862">
    <ele>248</ele>
    <time>2016-07-01T07:24:03Z</time>
    </trkpt>
    <trkpt lat="47.58785778" lon="7.58512528">
    <ele>248</ele>
    <time>2016-07-01T07:24:04Z</time>
    </trkpt>
    <trkpt lat="47.58803667" lon="7.58470445">
    <ele>247</ele>
    <time>2016-07-01T07:24:12Z</time>
    </trkpt>
    <trkpt lat="47.58803834" lon="7.58473528">
    <ele>248</ele>
    <time>2016-07-01T07:24:13Z</time>
    </trkpt>
    <trkpt lat="47.58816001" lon="7.58443639">
    <ele>246</ele>
    <time>2016-07-01T07:24:18Z</time>
    </trkpt>
    <trkpt lat="47.58834112" lon="7.58410778">
    <ele>245</ele>
    <time>2016-07-01T07:24:25Z</time>
    </trkpt>
    <trkpt lat="47.58853" lon="7.58375584">
    <ele>245</ele>
    <time>2016-07-01T07:24:32Z</time>
    </trkpt>
    <trkpt lat="47.58915473" lon="7.58264945">
    <ele>244</ele>
    <time>2016-07-01T07:24:55Z</time>
    </trkpt>
    <trkpt lat="47.58950806" lon="7.58202834">
    <ele>244</ele>
    <time>2016-07-01T07:25:08Z</time>
    </trkpt>
    <trkpt lat="47.58978278" lon="7.5815275">
    <ele>244</ele>
    <time>2016-07-01T07:25:18Z</time>
    </trkpt>
    <trkpt lat="47.59012056" lon="7.58098889">
    <ele>243</ele>
    <time>2016-07-01T07:25:30Z</time>
    </trkpt>
    <trkpt lat="47.59025278" lon="7.58061306">
    <ele>242</ele>
    <time>2016-07-01T07:25:37Z</time>
    </trkpt>
    <trkpt lat="47.59066334" lon="7.58005806">
    <ele>241</ele>
    <time>2016-07-01T07:25:50Z</time>
    </trkpt>
    <trkpt lat="47.59087223" lon="7.57979278">
    <ele>241</ele>
    <time>2016-07-01T07:25:56Z</time>
    </trkpt>
    <trkpt lat="47.59114556" lon="7.57958473">
    <ele>241</ele>
    <time>2016-07-01T07:26:04Z</time>
    </trkpt>
    <trkpt lat="47.59136834" lon="7.57934695">
    <ele>241</ele>
    <time>2016-07-01T07:26:10Z</time>
    </trkpt>
    <trkpt lat="47.59155028" lon="7.57920028">
    <ele>241</ele>
    <time>2016-07-01T07:26:15Z</time>
    </trkpt>
    <trkpt lat="47.59161584" lon="7.57914445">
    <ele>241</ele>
    <time>2016-07-01T07:26:17Z</time>
    </trkpt>
    <trkpt lat="47.59187112" lon="7.57875028">
    <ele>240</ele>
    <time>2016-07-01T07:26:25Z</time>
    </trkpt>
    <trkpt lat="47.59188056" lon="7.57878806">
    <ele>240</ele>
    <time>2016-07-01T07:26:26Z</time>
    </trkpt>
    <trkpt lat="47.59248556" lon="7.57791251">
    <ele>241</ele>
    <time>2016-07-01T07:26:46Z</time>
    </trkpt>
    <trkpt lat="47.59249751" lon="7.57789112">
    <ele>241</ele>
    <time>2016-07-01T07:26:46Z</time>
    </trkpt>
    <trkpt lat="47.59277473" lon="7.57752112">
    <ele>242</ele>
    <time>2016-07-01T07:26:55Z</time>
    </trkpt>
    <trkpt lat="47.59297501" lon="7.57726556">
    <ele>242</ele>
    <time>2016-07-01T07:27:01Z</time>
    </trkpt>
    <trkpt lat="47.59292639" lon="7.57730306">
    <ele>242</ele>
    <time>2016-07-01T07:27:03Z</time>
    </trkpt>
    <trkpt lat="47.59335917" lon="7.57664112">
    <ele>242</ele>
    <time>2016-07-01T07:27:17Z</time>
    </trkpt>
    <trkpt lat="47.59428889" lon="7.57528473">
    <ele>242</ele>
    <time>2016-07-01T07:27:48Z</time>
    </trkpt>
    <trkpt lat="47.59585473" lon="7.57309806">
    <ele>242</ele>
    <time>2016-07-01T07:28:39Z</time>
    </trkpt>
    <trkpt lat="47.59767362" lon="7.57051084">
    <ele>243</ele>
    <time>2016-07-01T07:29:38Z</time>
    </trkpt>
    <trkpt lat="47.59766751" lon="7.57057445">
    <ele>243</ele>
    <time>2016-07-01T07:29:39Z</time>
    </trkpt>
    <trkpt lat="47.59800889" lon="7.57025889">
    <ele>243</ele>
    <time>2016-07-01T07:29:49Z</time>
    </trkpt>
    <trkpt lat="47.59820973" lon="7.56981639">
    <ele>243</ele>
    <time>2016-07-01T07:29:57Z</time>
    </trkpt>
    <trkpt lat="47.59824889" lon="7.56980195">
    <ele>243</ele>
    <time>2016-07-01T07:29:58Z</time>
    </trkpt>
    <trkpt lat="47.59854278" lon="7.56931362">
    <ele>243</ele>
    <time>2016-07-01T07:30:09Z</time>
    </trkpt>
    <trkpt lat="47.60002473" lon="7.56721362">
    <ele>239</ele>
    <time>2016-07-01T07:30:57Z</time>
    </trkpt>
    <trkpt lat="47.60181334" lon="7.56473639">
    <ele>237</ele>
    <time>2016-07-01T07:31:55Z</time>
    </trkpt>
    <trkpt lat="47.60341056" lon="7.56251028">
    <ele>238</ele>
    <time>2016-07-01T07:32:46Z</time>
    </trkpt>
    <trkpt lat="47.60392723" lon="7.56183362">
    <ele>240</ele>
    <time>2016-07-01T07:33:03Z</time>
    </trkpt>
    <trkpt lat="47.60392334" lon="7.56185084">
    <ele>240</ele>
    <time>2016-07-01T07:33:03Z</time>
    </trkpt>
    <trkpt lat="47.6042" lon="7.56162445">
    <ele>242</ele>
    <time>2016-07-01T07:33:10Z</time>
    </trkpt>
    <trkpt lat="47.60438139" lon="7.56125334">
    <ele>243</ele>
    <time>2016-07-01T07:33:18Z</time>
    </trkpt>
    <trkpt lat="47.6044175" lon="7.56121445">
    <ele>243</ele>
    <time>2016-07-01T07:33:19Z</time>
    </trkpt>
    <trkpt lat="47.60524723" lon="7.56031501">
    <ele>239</ele>
    <time>2016-07-01T07:33:43Z</time>
    </trkpt>
    <trkpt lat="47.60626528" lon="7.5593175">
    <ele>233</ele>
    <time>2016-07-01T07:34:12Z</time>
    </trkpt>
    <trkpt lat="47.60734751" lon="7.55823584">
    <ele>235</ele>
    <time>2016-07-01T07:34:42Z</time>
    </trkpt>
    <trkpt lat="47.60908167" lon="7.556545">
    <ele>237</ele>
    <time>2016-07-01T07:35:31Z</time>
    </trkpt>
    <trkpt lat="47.6091675" lon="7.55646251">
    <ele>236</ele>
    <time>2016-07-01T07:35:34Z</time>
    </trkpt>
    <trkpt lat="47.61014056" lon="7.55553945">
    <ele>236</ele>
    <time>2016-07-01T07:36:01Z</time>
    </trkpt>
    <trkpt lat="47.61184306" lon="7.55381195">
    <ele>230</ele>
    <time>2016-07-01T07:36:49Z</time>
    </trkpt>
    <trkpt lat="47.61314973" lon="7.55253806">
    <ele>231</ele>
    <time>2016-07-01T07:37:26Z</time>
    </trkpt>
    <trkpt lat="47.61528639" lon="7.55041306">
    <ele>233</ele>
    <time>2016-07-01T07:38:27Z</time>
    </trkpt>
    <trkpt lat="47.61691862" lon="7.54880473">
    <ele>235</ele>
    <time>2016-07-01T07:39:13Z</time>
    </trkpt>
    <trkpt lat="47.61808584" lon="7.54767945">
    <ele>237</ele>
    <time>2016-07-01T07:39:46Z</time>
    </trkpt>
    <trkpt lat="47.61906417" lon="7.54675639">
    <ele>239</ele>
    <time>2016-07-01T07:40:13Z</time>
    </trkpt>
    <trkpt lat="47.61939195" lon="7.54609667">
    <ele>239</ele>
    <time>2016-07-01T07:40:26Z</time>
    </trkpt>
    <trkpt lat="47.61966778" lon="7.54579973">
    <ele>239</ele>
    <time>2016-07-01T07:40:34Z</time>
    </trkpt>
    <trkpt lat="47.61996945" lon="7.54554056">
    <ele>239</ele>
    <time>2016-07-01T07:40:43Z</time>
    </trkpt>
    <trkpt lat="47.61991362" lon="7.54549584">
    <ele>239</ele>
    <time>2016-07-01T07:40:44Z</time>
    </trkpt>
    <trkpt lat="47.62021056" lon="7.54604028">
    <ele>240</ele>
    <time>2016-07-01T07:40:55Z</time>
    </trkpt>
    <trkpt lat="47.62074612" lon="7.54561667">
    <ele>240</ele>
    <time>2016-07-01T07:41:09Z</time>
    </trkpt>
    <trkpt lat="47.62128445" lon="7.54505139">
    <ele>238</ele>
    <time>2016-07-01T07:41:25Z</time>
    </trkpt>
    <trkpt lat="47.62129223" lon="7.54504889">
    <ele>238</ele>
    <time>2016-07-01T07:41:25Z</time>
    </trkpt>
    <trkpt lat="47.6227825" lon="7.5435775">
    <ele>238</ele>
    <time>2016-07-01T07:42:07Z</time>
    </trkpt>
    <trkpt lat="47.624235" lon="7.54214028">
    <ele>240</ele>
    <time>2016-07-01T07:42:48Z</time>
    </trkpt>
    <trkpt lat="47.62619251" lon="7.54023195">
    <ele>234</ele>
    <time>2016-07-01T07:43:44Z</time>
    </trkpt>
    <trkpt lat="47.62773834" lon="7.53871167">
    <ele>237</ele>
    <time>2016-07-01T07:44:27Z</time>
    </trkpt>
    <trkpt lat="47.63110112" lon="7.53540445">
    <ele>238</ele>
    <time>2016-07-01T07:46:02Z</time>
    </trkpt>
    <trkpt lat="47.63392528" lon="7.53258917">
    <ele>243</ele>
    <time>2016-07-01T07:47:23Z</time>
    </trkpt>
    <trkpt lat="47.63561278" lon="7.53092889">
    <ele>237</ele>
    <time>2016-07-01T07:48:10Z</time>
    </trkpt>
    <trkpt lat="47.63656445" lon="7.53002084">
    <ele>238</ele>
    <time>2016-07-01T07:48:37Z</time>
    </trkpt>
    <trkpt lat="47.63661084" lon="7.5299225">
    <ele>238</ele>
    <time>2016-07-01T07:48:39Z</time>
    </trkpt>
    <trkpt lat="47.63671862" lon="7.52981667">
    <ele>238</ele>
    <time>2016-07-01T07:48:42Z</time>
    </trkpt>
    <trkpt lat="47.63686695" lon="7.52970001">
    <ele>238</ele>
    <time>2016-07-01T07:48:46Z</time>
    </trkpt>
    <trkpt lat="47.63686501" lon="7.52967834">
    <ele>238</ele>
    <time>2016-07-01T07:48:46Z</time>
    </trkpt>
    <trkpt lat="47.63679667" lon="7.52938306">
    <ele>239</ele>
    <time>2016-07-01T07:48:51Z</time>
    </trkpt>
    <trkpt lat="47.63681417" lon="7.52938889">
    <ele>239</ele>
    <time>2016-07-01T07:48:52Z</time>
    </trkpt>
    <trkpt lat="47.63784445" lon="7.52857639">
    <ele>236</ele>
    <time>2016-07-01T07:49:19Z</time>
    </trkpt>
    <trkpt lat="47.63824056" lon="7.52830028">
    <ele>236</ele>
    <time>2016-07-01T07:49:29Z</time>
    </trkpt>
    <trkpt lat="47.63822528" lon="7.52831334">
    <ele>236</ele>
    <time>2016-07-01T07:49:30Z</time>
    </trkpt>
    <trkpt lat="47.63854" lon="7.52817195">
    <ele>236</ele>
    <time>2016-07-01T07:49:38Z</time>
    </trkpt>
    <trkpt lat="47.63877278" lon="7.52783028">
    <ele>239</ele>
    <time>2016-07-01T07:49:45Z</time>
    </trkpt>
    <trkpt lat="47.63879973" lon="7.52781751">
    <ele>239</ele>
    <time>2016-07-01T07:49:46Z</time>
    </trkpt>
    <trkpt lat="47.64104584" lon="7.52595973">
    <ele>236</ele>
    <time>2016-07-01T07:50:47Z</time>
    </trkpt>
    <trkpt lat="47.64375862" lon="7.52372667">
    <ele>243</ele>
    <time>2016-07-01T07:52:00Z</time>
    </trkpt>
    <trkpt lat="47.64734584" lon="7.52075278">
    <ele>223</ele>
    <time>2016-07-01T07:53:36Z</time>
    </trkpt>
    <trkpt lat="47.64977195" lon="7.51872806">
    <ele>214</ele>
    <time>2016-07-01T07:54:42Z</time>
    </trkpt>
    <trkpt lat="47.65323334" lon="7.51585167">
    <ele>215</ele>
    <time>2016-07-01T07:56:15Z</time>
    </trkpt>
    <trkpt lat="47.65596973" lon="7.51360001">
    <ele>221</ele>
    <time>2016-07-01T07:57:29Z</time>
    </trkpt>
    <trkpt lat="47.65712862" lon="7.51267167">
    <ele>230</ele>
    <time>2016-07-01T07:58:00Z</time>
    </trkpt>
    <trkpt lat="47.65779112" lon="7.51206389">
    <ele>238</ele>
    <time>2016-07-01T07:58:19Z</time>
    </trkpt>
    <trkpt lat="47.65870223" lon="7.51136167">
    <ele>240</ele>
    <time>2016-07-01T07:58:43Z</time>
    </trkpt>
    <trkpt lat="47.65898251" lon="7.51123306">
    <ele>239</ele>
    <time>2016-07-01T07:58:50Z</time>
    </trkpt>
    <trkpt lat="47.65900306" lon="7.51117667">
    <ele>239</ele>
    <time>2016-07-01T07:58:51Z</time>
    </trkpt>
    <trkpt lat="47.65916417" lon="7.51109223">
    <ele>238</ele>
    <time>2016-07-01T07:58:55Z</time>
    </trkpt>
    <trkpt lat="47.65929167" lon="7.51089612">
    <ele>237</ele>
    <time>2016-07-01T07:58:59Z</time>
    </trkpt>
    <trkpt lat="47.65931334" lon="7.51089778">
    <ele>237</ele>
    <time>2016-07-01T07:58:59Z</time>
    </trkpt>
    <trkpt lat="47.65945723" lon="7.51068584">
    <ele>236</ele>
    <time>2016-07-01T07:59:04Z</time>
    </trkpt>
    <trkpt lat="47.66074667" lon="7.50960528">
    <ele>233</ele>
    <time>2016-07-01T07:59:39Z</time>
    </trkpt>
    <trkpt lat="47.66150417" lon="7.50900195">
    <ele>234</ele>
    <time>2016-07-01T07:59:59Z</time>
    </trkpt>
    <trkpt lat="47.66364528" lon="7.50727445">
    <ele>224</ele>
    <time>2016-07-01T08:00:57Z</time>
    </trkpt>
    <trkpt lat="47.66524445" lon="7.50592056">
    <ele>219</ele>
    <time>2016-07-01T08:01:40Z</time>
    </trkpt>
    <trkpt lat="47.66601889" lon="7.50527862">
    <ele>228</ele>
    <time>2016-07-01T08:02:01Z</time>
    </trkpt>
    <trkpt lat="47.66695278" lon="7.50472973">
    <ele>237</ele>
    <time>2016-07-01T08:02:25Z</time>
    </trkpt>
    <trkpt lat="47.66791834" lon="7.50432223">
    <ele>232</ele>
    <time>2016-07-01T08:02:48Z</time>
    </trkpt>
    <trkpt lat="47.66909445" lon="7.50422056">
    <ele>227</ele>
    <time>2016-07-01T08:03:16Z</time>
    </trkpt>
    <trkpt lat="47.67061945" lon="7.50442195">
    <ele>228</ele>
    <time>2016-07-01T08:03:52Z</time>
    </trkpt>
    <trkpt lat="47.67472778" lon="7.50504973">
    <ele>236</ele>
    <time>2016-07-01T08:05:29Z</time>
    </trkpt>
    <trkpt lat="47.67907278" lon="7.50570195">
    <ele>237</ele>
    <time>2016-07-01T08:07:12Z</time>
    </trkpt>
    <trkpt lat="47.67988723" lon="7.50583195">
    <ele>234</ele>
    <time>2016-07-01T08:07:31Z</time>
    </trkpt>
    <trkpt lat="47.68122889" lon="7.50603223">
    <ele>230</ele>
    <time>2016-07-01T08:08:03Z</time>
    </trkpt>
    <trkpt lat="47.68420723" lon="7.50649639">
    <ele>235</ele>
    <time>2016-07-01T08:09:14Z</time>
    </trkpt>
    <trkpt lat="47.6865775" lon="7.50691167">
    <ele>236</ele>
    <time>2016-07-01T08:10:10Z</time>
    </trkpt>
    <trkpt lat="47.68657889" lon="7.506855">
    <ele>236</ele>
    <time>2016-07-01T08:10:11Z</time>
    </trkpt>
    <trkpt lat="47.68652862" lon="7.50730028">
    <ele>238</ele>
    <time>2016-07-01T08:10:18Z</time>
    </trkpt>
    <trkpt lat="47.68663001" lon="7.50760167">
    <ele>238</ele>
    <time>2016-07-01T08:10:23Z</time>
    </trkpt>
    <trkpt lat="47.68666917" lon="7.50794556">
    <ele>238</ele>
    <time>2016-07-01T08:10:29Z</time>
    </trkpt>
    <trkpt lat="47.68666639" lon="7.50794473">
    <ele>239</ele>
    <time>2016-07-01T08:10:29Z</time>
    </trkpt>
    <trkpt lat="47.68739334" lon="7.50802889">
    <ele>238</ele>
    <time>2016-07-01T08:10:46Z</time>
    </trkpt>
    <trkpt lat="47.68804417" lon="7.50817112">
    <ele>238</ele>
    <time>2016-07-01T08:11:02Z</time>
    </trkpt>
    <trkpt lat="47.68806612" lon="7.50809834">
    <ele>238</ele>
    <time>2016-07-01T08:11:03Z</time>
    </trkpt>
    <trkpt lat="47.68820806" lon="7.50770528">
    <ele>236</ele>
    <time>2016-07-01T08:11:10Z</time>
    </trkpt>
    <trkpt lat="47.68842612" lon="7.50747084">
    <ele>236</ele>
    <time>2016-07-01T08:11:16Z</time>
    </trkpt>
    <trkpt lat="47.68919223" lon="7.50738445">
    <ele>232</ele>
    <time>2016-07-01T08:11:34Z</time>
    </trkpt>
    <trkpt lat="47.69019584" lon="7.50728778">
    <ele>229</ele>
    <time>2016-07-01T08:11:58Z</time>
    </trkpt>
    <trkpt lat="47.69185945" lon="7.50713195">
    <ele>226</ele>
    <time>2016-07-01T08:12:37Z</time>
    </trkpt>
    <trkpt lat="47.69354751" lon="7.50698667">
    <ele>228</ele>
    <time>2016-07-01T08:13:17Z</time>
    </trkpt>
    <trkpt lat="47.69473973" lon="7.50692112">
    <ele>228</ele>
    <time>2016-07-01T08:13:45Z</time>
    </trkpt>
    <trkpt lat="47.69477223" lon="7.50692028">
    <ele>228</ele>
    <time>2016-07-01T08:13:46Z</time>
    </trkpt>
    <trkpt lat="47.69514389" lon="7.50686917">
    <ele>229</ele>
    <time>2016-07-01T08:13:55Z</time>
    </trkpt>
    <trkpt lat="47.69567473" lon="7.5066725">
    <ele>229</ele>
    <time>2016-07-01T08:14:08Z</time>
    </trkpt>
    <trkpt lat="47.69563723" lon="7.50661417">
    <ele>229</ele>
    <time>2016-07-01T08:14:09Z</time>
    </trkpt>
    <trkpt lat="47.69590167" lon="7.50677778">
    <ele>229</ele>
    <time>2016-07-01T08:14:16Z</time>
    </trkpt>
    <trkpt lat="47.69614862" lon="7.50689278">
    <ele>228</ele>
    <time>2016-07-01T08:14:22Z</time>
    </trkpt>
    <trkpt lat="47.69619112" lon="7.50694334">
    <ele>229</ele>
    <time>2016-07-01T08:14:23Z</time>
    </trkpt>
    <trkpt lat="47.69674" lon="7.50689639">
    <ele>230</ele>
    <time>2016-07-01T08:14:36Z</time>
    </trkpt>
    <trkpt lat="47.69690556" lon="7.50683084">
    <ele>230</ele>
    <time>2016-07-01T08:14:40Z</time>
    </trkpt>
    <trkpt lat="47.69708501" lon="7.50665056">
    <ele>229</ele>
    <time>2016-07-01T08:14:45Z</time>
    </trkpt>
    <trkpt lat="47.69704306" lon="7.50621806">
    <ele>229</ele>
    <time>2016-07-01T08:14:52Z</time>
    </trkpt>
    <trkpt lat="47.69715862" lon="7.50585667">
    <ele>228</ele>
    <time>2016-07-01T08:14:58Z</time>
    </trkpt>
    <trkpt lat="47.69790584" lon="7.50548612">
    <ele>229</ele>
    <time>2016-07-01T08:15:17Z</time>
    </trkpt>
    <trkpt lat="47.69822639" lon="7.50548445">
    <ele>228</ele>
    <time>2016-07-01T08:15:24Z</time>
    </trkpt>
    <trkpt lat="47.69837945" lon="7.50549278">
    <ele>227</ele>
    <time>2016-07-01T08:15:28Z</time>
    </trkpt>
    <trkpt lat="47.6990625" lon="7.50537445">
    <ele>221</ele>
    <time>2016-07-01T08:15:44Z</time>
    </trkpt>
    <trkpt lat="47.69994056" lon="7.50543028">
    <ele>222</ele>
    <time>2016-07-01T08:16:05Z</time>
    </trkpt>
    <trkpt lat="47.70026639" lon="7.50578445">
    <ele>229</ele>
    <time>2016-07-01T08:16:14Z</time>
    </trkpt>
    <trkpt lat="47.70040417" lon="7.50655084">
    <ele>231</ele>
    <time>2016-07-01T08:16:27Z</time>
    </trkpt>
    <trkpt lat="47.70065862" lon="7.50691417">
    <ele>228</ele>
    <time>2016-07-01T08:16:35Z</time>
    </trkpt>
    <trkpt lat="47.70128417" lon="7.50692417">
    <ele>226</ele>
    <time>2016-07-01T08:16:50Z</time>
    </trkpt>
    <trkpt lat="47.70166112" lon="7.50664362">
    <ele>227</ele>
    <time>2016-07-01T08:17:00Z</time>
    </trkpt>
    <trkpt lat="47.70204389" lon="7.50631139">
    <ele>233</ele>
    <time>2016-07-01T08:17:10Z</time>
    </trkpt>
    <trkpt lat="47.70196639" lon="7.50635112">
    <ele>232</ele>
    <time>2016-07-01T08:17:12Z</time>
    </trkpt>
    <trkpt lat="47.70231167" lon="7.50591973">
    <ele>234</ele>
    <time>2016-07-01T08:17:23Z</time>
    </trkpt>
    <trkpt lat="47.70261278" lon="7.50569639">
    <ele>234</ele>
    <time>2016-07-01T08:17:31Z</time>
    </trkpt>
    <trkpt lat="47.70260945" lon="7.50570806">
    <ele>234</ele>
    <time>2016-07-01T08:17:31Z</time>
    </trkpt>
    <trkpt lat="47.70300278" lon="7.50557973">
    <ele>229</ele>
    <time>2016-07-01T08:17:41Z</time>
    </trkpt>
    <trkpt lat="47.70343167" lon="7.50551473">
    <ele>227</ele>
    <time>2016-07-01T08:17:51Z</time>
    </trkpt>
    <trkpt lat="47.70435584" lon="7.50553139">
    <ele>228</ele>
    <time>2016-07-01T08:18:13Z</time>
    </trkpt>
    <trkpt lat="47.70476417" lon="7.50516723">
    <ele>227</ele>
    <time>2016-07-01T08:18:24Z</time>
    </trkpt>
    <trkpt lat="47.70517834" lon="7.50430917">
    <ele>228</ele>
    <time>2016-07-01T08:18:41Z</time>
    </trkpt>
    <trkpt lat="47.70545612" lon="7.50392223">
    <ele>228</ele>
    <time>2016-07-01T08:18:50Z</time>
    </trkpt>
    <trkpt lat="47.70580889" lon="7.50358528">
    <ele>227</ele>
    <time>2016-07-01T08:18:59Z</time>
    </trkpt>
    <trkpt lat="47.70621389" lon="7.50339778">
    <ele>226</ele>
    <time>2016-07-01T08:19:09Z</time>
    </trkpt>
    <trkpt lat="47.70677306" lon="7.50326889">
    <ele>225</ele>
    <time>2016-07-01T08:19:23Z</time>
    </trkpt>
    <trkpt lat="47.70743889" lon="7.50261556">
    <ele>218</ele>
    <time>2016-07-01T08:19:42Z</time>
    </trkpt>
    <trkpt lat="47.70827084" lon="7.50236417">
    <ele>212</ele>
    <time>2016-07-01T08:20:02Z</time>
    </trkpt>
    <trkpt lat="47.70899028" lon="7.50201778">
    <ele>219</ele>
    <time>2016-07-01T08:20:19Z</time>
    </trkpt>
    <trkpt lat="47.7092125" lon="7.50194278">
    <ele>220</ele>
    <time>2016-07-01T08:20:25Z</time>
    </trkpt>
    <trkpt lat="47.70943362" lon="7.50207584">
    <ele>221</ele>
    <time>2016-07-01T08:20:30Z</time>
    </trkpt>
    <trkpt lat="47.70959778" lon="7.50230723">
    <ele>222</ele>
    <time>2016-07-01T08:20:36Z</time>
    </trkpt>
    <trkpt lat="47.70960056" lon="7.50225417">
    <ele>221</ele>
    <time>2016-07-01T08:20:36Z</time>
    </trkpt>
    <trkpt lat="47.70991223" lon="7.50349084">
    <ele>227</ele>
    <time>2016-07-01T08:20:57Z</time>
    </trkpt>
    <trkpt lat="47.71002501" lon="7.50351195">
    <ele>228</ele>
    <time>2016-07-01T08:21:00Z</time>
    </trkpt>
    <trkpt lat="47.70999639" lon="7.50353223">
    <ele>227</ele>
    <time>2016-07-01T08:21:01Z</time>
    </trkpt>
    <trkpt lat="47.70999723" lon="7.50359278">
    <ele>227</ele>
    <time>2016-07-01T08:21:02Z</time>
    </trkpt>
    <trkpt lat="47.70990223" lon="7.50414">
    <ele>231</ele>
    <time>2016-07-01T08:21:11Z</time>
    </trkpt>
    <trkpt lat="47.70965584" lon="7.50402612">
    <ele>228</ele>
    <time>2016-07-01T08:21:17Z</time>
    </trkpt>
    <trkpt lat="47.70920556" lon="7.50394806">
    <ele>226</ele>
    <time>2016-07-01T08:21:28Z</time>
    </trkpt>
    <trkpt lat="47.7086975" lon="7.50414417">
    <ele>224</ele>
    <time>2016-07-01T08:21:40Z</time>
    </trkpt>
    <trkpt lat="47.70805834" lon="7.50455084">
    <ele>224</ele>
    <time>2016-07-01T08:21:56Z</time>
    </trkpt>
    <trkpt lat="47.70795084" lon="7.50483112">
    <ele>224</ele>
    <time>2016-07-01T08:22:01Z</time>
    </trkpt>
    <trkpt lat="47.70797612" lon="7.50519362">
    <ele>226</ele>
    <time>2016-07-01T08:22:07Z</time>
    </trkpt>
    <trkpt lat="47.70818056" lon="7.50572723">
    <ele>230</ele>
    <time>2016-07-01T08:22:17Z</time>
    </trkpt>
    <trkpt lat="47.70839501" lon="7.50599834">
    <ele>231</ele>
    <time>2016-07-01T08:22:24Z</time>
    </trkpt>
    <trkpt lat="47.70857056" lon="7.50614973">
    <ele>230</ele>
    <time>2016-07-01T08:22:28Z</time>
    </trkpt>
    <trkpt lat="47.70921667" lon="7.50636834">
    <ele>230</ele>
    <time>2016-07-01T08:22:44Z</time>
    </trkpt>
    <trkpt lat="47.70997945" lon="7.50692139">
    <ele>231</ele>
    <time>2016-07-01T08:23:04Z</time>
    </trkpt>
    <trkpt lat="47.71061806" lon="7.50735695">
    <ele>231</ele>
    <time>2016-07-01T08:23:20Z</time>
    </trkpt>
    <trkpt lat="47.71061584" lon="7.50744306">
    <ele>231</ele>
    <time>2016-07-01T08:23:22Z</time>
    </trkpt>
    <trkpt lat="47.71148334" lon="7.50821139">
    <ele>235</ele>
    <time>2016-07-01T08:23:46Z</time>
    </trkpt>
    <trkpt lat="47.71244973" lon="7.50897278">
    <ele>236</ele>
    <time>2016-07-01T08:24:11Z</time>
    </trkpt>
    <trkpt lat="47.71284473" lon="7.50915834">
    <ele>237</ele>
    <time>2016-07-01T08:24:21Z</time>
    </trkpt>
    <trkpt lat="47.71321917" lon="7.50927695">
    <ele>237</ele>
    <time>2016-07-01T08:24:30Z</time>
    </trkpt>
    <trkpt lat="47.71336306" lon="7.50934334">
    <ele>238</ele>
    <time>2016-07-01T08:24:34Z</time>
    </trkpt>
    <trkpt lat="47.71338056" lon="7.50929723">
    <ele>238</ele>
    <time>2016-07-01T08:24:35Z</time>
    </trkpt>
    <trkpt lat="47.71377417" lon="7.50974612">
    <ele>238</ele>
    <time>2016-07-01T08:24:46Z</time>
    </trkpt>
    <trkpt lat="47.71424639" lon="7.51015334">
    <ele>237</ele>
    <time>2016-07-01T08:24:59Z</time>
    </trkpt>
    <trkpt lat="47.71446139" lon="7.51032723">
    <ele>236</ele>
    <time>2016-07-01T08:25:05Z</time>
    </trkpt>
    <trkpt lat="47.71474973" lon="7.51048167">
    <ele>236</ele>
    <time>2016-07-01T08:25:12Z</time>
    </trkpt>
    <trkpt lat="47.71477278" lon="7.51041056">
    <ele>236</ele>
    <time>2016-07-01T08:25:13Z</time>
    </trkpt>
    <trkpt lat="47.71497612" lon="7.51070473">
    <ele>235</ele>
    <time>2016-07-01T08:25:20Z</time>
    </trkpt>
    <trkpt lat="47.71550112" lon="7.51133806">
    <ele>233</ele>
    <time>2016-07-01T08:25:36Z</time>
    </trkpt>
    <trkpt lat="47.71552473" lon="7.51137084">
    <ele>233</ele>
    <time>2016-07-01T08:25:37Z</time>
    </trkpt>
    <trkpt lat="47.71609028" lon="7.51201223">
    <ele>230</ele>
    <time>2016-07-01T08:25:54Z</time>
    </trkpt>
    <trkpt lat="47.71711695" lon="7.51315445">
    <ele>232</ele>
    <time>2016-07-01T08:26:24Z</time>
    </trkpt>
    <trkpt lat="47.71806278" lon="7.51402362">
    <ele>236</ele>
    <time>2016-07-01T08:26:50Z</time>
    </trkpt>
    <trkpt lat="47.71898556" lon="7.51482778">
    <ele>244</ele>
    <time>2016-07-01T08:27:15Z</time>
    </trkpt>
    <trkpt lat="47.71991417" lon="7.51559528">
    <ele>235</ele>
    <time>2016-07-01T08:27:40Z</time>
    </trkpt>
    <trkpt lat="47.72066334" lon="7.51612862">
    <ele>235</ele>
    <time>2016-07-01T08:28:00Z</time>
    </trkpt>
    <trkpt lat="47.7216075" lon="7.51667167">
    <ele>236</ele>
    <time>2016-07-01T08:28:24Z</time>
    </trkpt>
    <trkpt lat="47.72248278" lon="7.51716973">
    <ele>234</ele>
    <time>2016-07-01T08:28:46Z</time>
    </trkpt>
    <trkpt lat="47.72309945" lon="7.51730362">
    <ele>229</ele>
    <time>2016-07-01T08:29:00Z</time>
    </trkpt>
    <trkpt lat="47.72351389" lon="7.5173225">
    <ele>227</ele>
    <time>2016-07-01T08:29:10Z</time>
    </trkpt>
    <trkpt lat="47.72378667" lon="7.51728251">
    <ele>225</ele>
    <time>2016-07-01T08:29:17Z</time>
    </trkpt>
    <trkpt lat="47.72428917" lon="7.51711223">
    <ele>215</ele>
    <time>2016-07-01T08:29:29Z</time>
    </trkpt>
    <trkpt lat="47.72474084" lon="7.51694584">
    <ele>209</ele>
    <time>2016-07-01T08:29:40Z</time>
    </trkpt>
    <trkpt lat="47.72531723" lon="7.51650084">
    <ele>202</ele>
    <time>2016-07-01T08:29:55Z</time>
    </trkpt>
    <trkpt lat="47.72559556" lon="7.51635862">
    <ele>205</ele>
    <time>2016-07-01T08:30:02Z</time>
    </trkpt>
    <trkpt lat="47.72633195" lon="7.51618806">
    <ele>221</ele>
    <time>2016-07-01T08:30:19Z</time>
    </trkpt>
    <trkpt lat="47.72712889" lon="7.51613501">
    <ele>231</ele>
    <time>2016-07-01T08:30:38Z</time>
    </trkpt>
    <trkpt lat="47.72751695" lon="7.51633556">
    <ele>235</ele>
    <time>2016-07-01T08:30:48Z</time>
    </trkpt>
    <trkpt lat="47.72750945" lon="7.51632723">
    <ele>235</ele>
    <time>2016-07-01T08:30:48Z</time>
    </trkpt>
    <trkpt lat="47.72780306" lon="7.51697723">
    <ele>234</ele>
    <time>2016-07-01T08:31:01Z</time>
    </trkpt>
    <trkpt lat="47.72838473" lon="7.51840112">
    <ele>226</ele>
    <time>2016-07-01T08:31:27Z</time>
    </trkpt>
    <trkpt lat="47.72840501" lon="7.51844473">
    <ele>226</ele>
    <time>2016-07-01T08:31:28Z</time>
    </trkpt>
    <trkpt lat="47.72863862" lon="7.51900028">
    <ele>228</ele>
    <time>2016-07-01T08:31:38Z</time>
    </trkpt>
    <trkpt lat="47.7288675" lon="7.51929862">
    <ele>228</ele>
    <time>2016-07-01T08:31:45Z</time>
    </trkpt>
    <trkpt lat="47.7291525" lon="7.51941389">
    <ele>227</ele>
    <time>2016-07-01T08:31:52Z</time>
    </trkpt>
    <trkpt lat="47.72956528" lon="7.5194025">
    <ele>228</ele>
    <time>2016-07-01T08:32:02Z</time>
    </trkpt>
    <trkpt lat="47.73046084" lon="7.51937001">
    <ele>228</ele>
    <time>2016-07-01T08:32:23Z</time>
    </trkpt>
    <trkpt lat="47.73068501" lon="7.51943612">
    <ele>228</ele>
    <time>2016-07-01T08:32:29Z</time>
    </trkpt>
    <trkpt lat="47.73067917" lon="7.51941362">
    <ele>228</ele>
    <time>2016-07-01T08:32:29Z</time>
    </trkpt>
    <trkpt lat="47.73062945" lon="7.51963695">
    <ele>228</ele>
    <time>2016-07-01T08:32:33Z</time>
    </trkpt>
    <trkpt lat="47.73038889" lon="7.52046445">
    <ele>226</ele>
    <time>2016-07-01T08:32:47Z</time>
    </trkpt>
    <trkpt lat="47.73017001" lon="7.52135">
    <ele>230</ele>
    <time>2016-07-01T08:33:02Z</time>
    </trkpt>
    <trkpt lat="47.73074695" lon="7.52166112">
    <ele>229</ele>
    <time>2016-07-01T08:33:16Z</time>
    </trkpt>
    <trkpt lat="47.73165445" lon="7.521985">
    <ele>226</ele>
    <time>2016-07-01T08:33:38Z</time>
    </trkpt>
    <trkpt lat="47.73220195" lon="7.52208917">
    <ele>227</ele>
    <time>2016-07-01T08:33:51Z</time>
    </trkpt>
    <trkpt lat="47.73323612" lon="7.52212973">
    <ele>225</ele>
    <time>2016-07-01T08:34:16Z</time>
    </trkpt>
    <trkpt lat="47.7332325" lon="7.52209667">
    <ele>225</ele>
    <time>2016-07-01T08:34:16Z</time>
    </trkpt>
    <trkpt lat="47.73329112" lon="7.52164167">
    <ele>223</ele>
    <time>2016-07-01T08:34:24Z</time>
    </trkpt>
    <trkpt lat="47.73355695" lon="7.52029723">
    <ele>223</ele>
    <time>2016-07-01T08:34:46Z</time>
    </trkpt>
    <trkpt lat="47.73402889" lon="7.52012084">
    <ele>219</ele>
    <time>2016-07-01T08:34:57Z</time>
    </trkpt>
    <trkpt lat="47.73477528" lon="7.51989278">
    <ele>216</ele>
    <time>2016-07-01T08:35:15Z</time>
    </trkpt>
    <trkpt lat="47.73548695" lon="7.51953528">
    <ele>220</ele>
    <time>2016-07-01T08:35:33Z</time>
    </trkpt>
    <trkpt lat="47.73580473" lon="7.51935112">
    <ele>222</ele>
    <time>2016-07-01T08:35:41Z</time>
    </trkpt>
    <trkpt lat="47.73672612" lon="7.51852778">
    <ele>223</ele>
    <time>2016-07-01T08:36:06Z</time>
    </trkpt>
    <trkpt lat="47.73758001" lon="7.51847556">
    <ele>226</ele>
    <time>2016-07-01T08:36:26Z</time>
    </trkpt>
    <trkpt lat="47.73818834" lon="7.51848278">
    <ele>228</ele>
    <time>2016-07-01T08:36:41Z</time>
    </trkpt>
    <trkpt lat="47.7396575" lon="7.51860556">
    <ele>228</ele>
    <time>2016-07-01T08:37:15Z</time>
    </trkpt>
    <trkpt lat="47.73995112" lon="7.51861778">
    <ele>229</ele>
    <time>2016-07-01T08:37:22Z</time>
    </trkpt>
    <trkpt lat="47.74044612" lon="7.51860528">
    <ele>229</ele>
    <time>2016-07-01T08:37:34Z</time>
    </trkpt>
    <trkpt lat="47.74106556" lon="7.51849084">
    <ele>227</ele>
    <time>2016-07-01T08:37:49Z</time>
    </trkpt>
    <trkpt lat="47.74201056" lon="7.51789084">
    <ele>225</ele>
    <time>2016-07-01T08:38:13Z</time>
    </trkpt>
    <trkpt lat="47.74282362" lon="7.51795084">
    <ele>225</ele>
    <time>2016-07-01T08:38:32Z</time>
    </trkpt>
    <trkpt lat="47.74361889" lon="7.51799834">
    <ele>231</ele>
    <time>2016-07-01T08:38:51Z</time>
    </trkpt>
    <trkpt lat="47.74476028" lon="7.51809056">
    <ele>223</ele>
    <time>2016-07-01T08:39:18Z</time>
    </trkpt>
    <trkpt lat="47.74552223" lon="7.51810639">
    <ele>225</ele>
    <time>2016-07-01T08:39:36Z</time>
    </trkpt>
    <trkpt lat="47.74604612" lon="7.51796528">
    <ele>226</ele>
    <time>2016-07-01T08:39:48Z</time>
    </trkpt>
    <trkpt lat="47.74806806" lon="7.51714056">
    <ele>220</ele>
    <time>2016-07-01T08:40:37Z</time>
    </trkpt>
    <trkpt lat="47.75064112" lon="7.51611751">
    <ele>228</ele>
    <time>2016-07-01T08:41:40Z</time>
    </trkpt>
    <trkpt lat="47.75255917" lon="7.51529723">
    <ele>226</ele>
    <time>2016-07-01T08:42:27Z</time>
    </trkpt>
    <trkpt lat="47.75353917" lon="7.51484334">
    <ele>229</ele>
    <time>2016-07-01T08:42:51Z</time>
    </trkpt>
    <trkpt lat="47.75472612" lon="7.51429306">
    <ele>226</ele>
    <time>2016-07-01T08:43:21Z</time>
    </trkpt>
    <trkpt lat="47.75522584" lon="7.51406778">
    <ele>223</ele>
    <time>2016-07-01T08:43:33Z</time>
    </trkpt>
    <trkpt lat="47.75568139" lon="7.51405528">
    <ele>223</ele>
    <time>2016-07-01T08:43:44Z</time>
    </trkpt>
    <trkpt lat="47.75695639" lon="7.51397195">
    <ele>225</ele>
    <time>2016-07-01T08:44:14Z</time>
    </trkpt>
    <trkpt lat="47.75889195" lon="7.51390945">
    <ele>224</ele>
    <time>2016-07-01T08:44:59Z</time>
    </trkpt>
    <trkpt lat="47.75920778" lon="7.51389556">
    <ele>224</ele>
    <time>2016-07-01T08:45:07Z</time>
    </trkpt>
    <trkpt lat="47.75947362" lon="7.51393139">
    <ele>223</ele>
    <time>2016-07-01T08:45:13Z</time>
    </trkpt>
    <trkpt lat="47.75971417" lon="7.51401223">
    <ele>223</ele>
    <time>2016-07-01T08:45:19Z</time>
    </trkpt>
    <trkpt lat="47.75984084" lon="7.51335056">
    <ele>223</ele>
    <time>2016-07-01T08:45:30Z</time>
    </trkpt>
    <trkpt lat="47.75986445" lon="7.51253639">
    <ele>223</ele>
    <time>2016-07-01T08:45:43Z</time>
    </trkpt>
    <trkpt lat="47.75980806" lon="7.51203917">
    <ele>223</ele>
    <time>2016-07-01T08:45:51Z</time>
    </trkpt>
    <trkpt lat="47.75979862" lon="7.51206139">
    <ele>223</ele>
    <time>2016-07-01T08:45:51Z</time>
    </trkpt>
    <trkpt lat="47.75993112" lon="7.51203556">
    <ele>223</ele>
    <time>2016-07-01T08:45:54Z</time>
    </trkpt>
    <trkpt lat="47.76003334" lon="7.511945">
    <ele>223</ele>
    <time>2016-07-01T08:45:57Z</time>
    </trkpt>
    <trkpt lat="47.76018639" lon="7.51161223">
    <ele>225</ele>
    <time>2016-07-01T08:46:03Z</time>
    </trkpt>
    <trkpt lat="47.76026112" lon="7.51130362">
    <ele>225</ele>
    <time>2016-07-01T08:46:09Z</time>
    </trkpt>
    <trkpt lat="47.76029751" lon="7.51106195">
    <ele>225</ele>
    <time>2016-07-01T08:46:13Z</time>
    </trkpt>
    <trkpt lat="47.76030945" lon="7.51085">
    <ele>225</ele>
    <time>2016-07-01T08:46:16Z</time>
    </trkpt>
    <trkpt lat="47.76033834" lon="7.51080528">
    <ele>226</ele>
    <time>2016-07-01T08:46:17Z</time>
    </trkpt>
    <trkpt lat="47.76049112" lon="7.51081556">
    <ele>225</ele>
    <time>2016-07-01T08:46:21Z</time>
    </trkpt>
    <trkpt lat="47.76068223" lon="7.51075889">
    <ele>225</ele>
    <time>2016-07-01T08:46:25Z</time>
    </trkpt>
    <trkpt lat="47.76077389" lon="7.51062501">
    <ele>225</ele>
    <time>2016-07-01T08:46:28Z</time>
    </trkpt>
    <trkpt lat="47.76088806" lon="7.51030806">
    <ele>225</ele>
    <time>2016-07-01T08:46:34Z</time>
    </trkpt>
    <trkpt lat="47.76096834" lon="7.51006473">
    <ele>225</ele>
    <time>2016-07-01T08:46:38Z</time>
    </trkpt>
    <trkpt lat="47.76099834" lon="7.50970639">
    <ele>224</ele>
    <time>2016-07-01T08:46:44Z</time>
    </trkpt>
    <trkpt lat="47.76105834" lon="7.50941278">
    <ele>224</ele>
    <time>2016-07-01T08:46:49Z</time>
    </trkpt>
    <trkpt lat="47.76111278" lon="7.50905362">
    <ele>224</ele>
    <time>2016-07-01T08:46:55Z</time>
    </trkpt>
    <trkpt lat="47.76111917" lon="7.50879084">
    <ele>224</ele>
    <time>2016-07-01T08:46:59Z</time>
    </trkpt>
    <trkpt lat="47.76115278" lon="7.50834473">
    <ele>224</ele>
    <time>2016-07-01T08:47:06Z</time>
    </trkpt>
    <trkpt lat="47.76116389" lon="7.50821084">
    <ele>224</ele>
    <time>2016-07-01T08:47:08Z</time>
    </trkpt>
    <trkpt lat="47.76106695" lon="7.50817917">
    <ele>224</ele>
    <time>2016-07-01T08:47:10Z</time>
    </trkpt>
    <trkpt lat="47.76095251" lon="7.50808751">
    <ele>224</ele>
    <time>2016-07-01T08:47:13Z</time>
    </trkpt>
    <trkpt lat="47.76089195" lon="7.50796528">
    <ele>225</ele>
    <time>2016-07-01T08:47:16Z</time>
    </trkpt>
    <trkpt lat="47.76089389" lon="7.50772723">
    <ele>225</ele>
    <time>2016-07-01T08:47:20Z</time>
    </trkpt>
    <trkpt lat="47.76080001" lon="7.50765362">
    <ele>226</ele>
    <time>2016-07-01T08:47:22Z</time>
    </trkpt>
    <trkpt lat="47.7605575" lon="7.50761473">
    <ele>227</ele>
    <time>2016-07-01T08:47:28Z</time>
    </trkpt>
    <trkpt lat="47.76037278" lon="7.50761028">
    <ele>228</ele>
    <time>2016-07-01T08:47:32Z</time>
    </trkpt>
    <trkpt lat="47.76033639" lon="7.50739528">
    <ele>227</ele>
    <time>2016-07-01T08:47:36Z</time>
    </trkpt>
    <trkpt lat="47.76036028" lon="7.50685556">
    <ele>228</ele>
    <time>2016-07-01T08:47:44Z</time>
    </trkpt>
    <trkpt lat="47.76039112" lon="7.50632445">
    <ele>230</ele>
    <time>2016-07-01T08:47:53Z</time>
    </trkpt>
    <trkpt lat="47.76060862" lon="7.50600834">
    <ele>230</ele>
    <time>2016-07-01T08:48:00Z</time>
    </trkpt>
    <trkpt lat="47.76074084" lon="7.50600445">
    <ele>230</ele>
    <time>2016-07-01T08:48:03Z</time>
    </trkpt>
    <trkpt lat="47.76112528" lon="7.50603778">
    <ele>229</ele>
    <time>2016-07-01T08:48:12Z</time>
    </trkpt>
    <trkpt lat="47.76133195" lon="7.50602528">
    <ele>229</ele>
    <time>2016-07-01T08:48:17Z</time>
    </trkpt>
    <trkpt lat="47.76139695" lon="7.50555001">
    <ele>227</ele>
    <time>2016-07-01T08:48:25Z</time>
    </trkpt>
    <trkpt lat="47.76144556" lon="7.50475306">
    <ele>227</ele>
    <time>2016-07-01T08:48:37Z</time>
    </trkpt>
    <trkpt lat="47.76143612" lon="7.50472945">
    <ele>227</ele>
    <time>2016-07-01T08:48:38Z</time>
    </trkpt>
    <trkpt lat="47.76181084" lon="7.50479889">
    <ele>227</ele>
    <time>2016-07-01T08:48:47Z</time>
    </trkpt>
    <trkpt lat="47.76253639" lon="7.50488889">
    <ele>222</ele>
    <time>2016-07-01T08:49:04Z</time>
    </trkpt>
    <trkpt lat="47.76285417" lon="7.50493612">
    <ele>221</ele>
    <time>2016-07-01T08:49:11Z</time>
    </trkpt>
    <trkpt lat="47.76285417" lon="7.50493612">
    <ele>221</ele>
    <time>2016-07-01T08:49:11Z</time>
    </trkpt>
    <trkpt lat="47.76427306" lon="7.50515695">
    <ele>222</ele>
    <time>2016-07-01T08:49:45Z</time>
    </trkpt>
    <trkpt lat="47.76597556" lon="7.50518001">
    <ele>223</ele>
    <time>2016-07-01T08:50:25Z</time>
    </trkpt>
    <trkpt lat="47.76722028" lon="7.5050975">
    <ele>223</ele>
    <time>2016-07-01T08:50:54Z</time>
    </trkpt>
    <trkpt lat="47.76762112" lon="7.50514834">
    <ele>223</ele>
    <time>2016-07-01T08:51:04Z</time>
    </trkpt>
    <trkpt lat="47.76948917" lon="7.50557028">
    <ele>222</ele>
    <time>2016-07-01T08:51:48Z</time>
    </trkpt>
    <trkpt lat="47.76948917" lon="7.50557028">
    <ele>222</ele>
    <time>2016-07-01T08:51:48Z</time>
    </trkpt>
    <trkpt lat="47.77277334" lon="7.50561334">
    <ele>226</ele>
    <time>2016-07-01T08:53:06Z</time>
    </trkpt>
    <trkpt lat="47.77496112" lon="7.50561445">
    <ele>223</ele>
    <time>2016-07-01T08:53:57Z</time>
    </trkpt>
    <trkpt lat="47.77769139" lon="7.50561084">
    <ele>221</ele>
    <time>2016-07-01T08:55:01Z</time>
    </trkpt>
    <trkpt lat="47.77766528" lon="7.50559973">
    <ele>221</ele>
    <time>2016-07-01T08:55:02Z</time>
    </trkpt>
    <trkpt lat="47.77851112" lon="7.50558362">
    <ele>222</ele>
    <time>2016-07-01T08:55:22Z</time>
    </trkpt>
    <trkpt lat="47.77851112" lon="7.50560723">
    <ele>222</ele>
    <time>2016-07-01T08:55:22Z</time>
    </trkpt>
    <trkpt lat="47.78128278" lon="7.50562473">
    <ele>222</ele>
    <time>2016-07-01T08:56:28Z</time>
    </trkpt>
    <trkpt lat="47.78371473" lon="7.50563528">
    <ele>216</ele>
    <time>2016-07-01T08:57:25Z</time>
    </trkpt>
    <trkpt lat="47.78472806" lon="7.50561862">
    <ele>217</ele>
    <time>2016-07-01T08:57:49Z</time>
    </trkpt>
    <trkpt lat="47.78516834" lon="7.50543139">
    <ele>220</ele>
    <time>2016-07-01T08:57:59Z</time>
    </trkpt>
    <trkpt lat="47.78514889" lon="7.50544695">
    <ele>220</ele>
    <time>2016-07-01T08:58:00Z</time>
    </trkpt>
    <trkpt lat="47.78580223" lon="7.50629306">
    <ele>221</ele>
    <time>2016-07-01T08:58:20Z</time>
    </trkpt>
    <trkpt lat="47.78615084" lon="7.5064625">
    <ele>226</ele>
    <time>2016-07-01T08:58:29Z</time>
    </trkpt>
    <trkpt lat="47.78652473" lon="7.50651056">
    <ele>224</ele>
    <time>2016-07-01T08:58:38Z</time>
    </trkpt>
    <trkpt lat="47.78653112" lon="7.50649167">
    <ele>224</ele>
    <time>2016-07-01T08:58:38Z</time>
    </trkpt>
    <trkpt lat="47.78632362" lon="7.50734445">
    <ele>226</ele>
    <time>2016-07-01T08:58:53Z</time>
    </trkpt>
    <trkpt lat="47.78617556" lon="7.50776889">
    <ele>226</ele>
    <time>2016-07-01T08:59:00Z</time>
    </trkpt>
    <trkpt lat="47.78596389" lon="7.50824306">
    <ele>228</ele>
    <time>2016-07-01T08:59:09Z</time>
    </trkpt>
    <trkpt lat="47.78620028" lon="7.50868112">
    <ele>227</ele>
    <time>2016-07-01T08:59:18Z</time>
    </trkpt>
    <trkpt lat="47.78652001" lon="7.50906945">
    <ele>224</ele>
    <time>2016-07-01T08:59:28Z</time>
    </trkpt>
    <trkpt lat="47.78707445" lon="7.50960973">
    <ele>223</ele>
    <time>2016-07-01T08:59:43Z</time>
    </trkpt>
    <trkpt lat="47.78840001" lon="7.51094834">
    <ele>222</ele>
    <time>2016-07-01T09:00:21Z</time>
    </trkpt>
    <trkpt lat="47.78876001" lon="7.51120278">
    <ele>221</ele>
    <time>2016-07-01T09:00:31Z</time>
    </trkpt>
    <trkpt lat="47.78971112" lon="7.51138889">
    <ele>221</ele>
    <time>2016-07-01T09:00:53Z</time>
    </trkpt>
    <trkpt lat="47.78976695" lon="7.51137528">
    <ele>222</ele>
    <time>2016-07-01T09:00:54Z</time>
    </trkpt>
    <trkpt lat="47.78985917" lon="7.51143112">
    <ele>221</ele>
    <time>2016-07-01T09:00:57Z</time>
    </trkpt>
    <trkpt lat="47.789925" lon="7.51142556">
    <ele>221</ele>
    <time>2016-07-01T09:00:58Z</time>
    </trkpt>
    <trkpt lat="47.79001973" lon="7.51137695">
    <ele>222</ele>
    <time>2016-07-01T09:01:01Z</time>
    </trkpt>
    <trkpt lat="47.79011417" lon="7.51127473">
    <ele>222</ele>
    <time>2016-07-01T09:01:03Z</time>
    </trkpt>
    <trkpt lat="47.79011417" lon="7.51113917">
    <ele>222</ele>
    <time>2016-07-01T09:01:06Z</time>
    </trkpt>
    <trkpt lat="47.79011056" lon="7.51105639">
    <ele>222</ele>
    <time>2016-07-01T09:01:07Z</time>
    </trkpt>
    <trkpt lat="47.79035112" lon="7.51040556">
    <ele>222</ele>
    <time>2016-07-01T09:01:19Z</time>
    </trkpt>
    <trkpt lat="47.79035556" lon="7.51042195">
    <ele>222</ele>
    <time>2016-07-01T09:01:19Z</time>
    </trkpt>
    <trkpt lat="47.79043362" lon="7.51034195">
    <ele>222</ele>
    <time>2016-07-01T09:01:21Z</time>
    </trkpt>
    <trkpt lat="47.79055195" lon="7.51026028">
    <ele>223</ele>
    <time>2016-07-01T09:01:24Z</time>
    </trkpt>
    <trkpt lat="47.79052973" lon="7.51026084">
    <ele>223</ele>
    <time>2016-07-01T09:01:25Z</time>
    </trkpt>
    <trkpt lat="47.79097278" lon="7.51033584">
    <ele>227</ele>
    <time>2016-07-01T09:01:35Z</time>
    </trkpt>
    <trkpt lat="47.79137362" lon="7.51033695">
    <ele>223</ele>
    <time>2016-07-01T09:01:45Z</time>
    </trkpt>
    <trkpt lat="47.79140584" lon="7.51025723">
    <ele>220</ele>
    <time>2016-07-01T09:01:46Z</time>
    </trkpt>
    <trkpt lat="47.79146001" lon="7.51014">
    <ele>220</ele>
    <time>2016-07-01T09:01:48Z</time>
    </trkpt>
    <trkpt lat="47.79147889" lon="7.50989195">
    <ele>220</ele>
    <time>2016-07-01T09:01:52Z</time>
    </trkpt>
    <trkpt lat="47.79142139" lon="7.50974473">
    <ele>220</ele>
    <time>2016-07-01T09:01:55Z</time>
    </trkpt>
    <trkpt lat="47.79127306" lon="7.50946834">
    <ele>221</ele>
    <time>2016-07-01T09:02:01Z</time>
    </trkpt>
    <trkpt lat="47.79114945" lon="7.50922639">
    <ele>221</ele>
    <time>2016-07-01T09:02:06Z</time>
    </trkpt>
    <trkpt lat="47.79108139" lon="7.50889556">
    <ele>222</ele>
    <time>2016-07-01T09:02:11Z</time>
    </trkpt>
    <trkpt lat="47.79109334" lon="7.50859362">
    <ele>223</ele>
    <time>2016-07-01T09:02:16Z</time>
    </trkpt>
    <trkpt lat="47.79110473" lon="7.50813778">
    <ele>223</ele>
    <time>2016-07-01T09:02:23Z</time>
    </trkpt>
    <trkpt lat="47.79117056" lon="7.50769695">
    <ele>224</ele>
    <time>2016-07-01T09:02:30Z</time>
    </trkpt>
    <trkpt lat="47.79129639" lon="7.50697334">
    <ele>224</ele>
    <time>2016-07-01T09:02:42Z</time>
    </trkpt>
    <trkpt lat="47.79141112" lon="7.50639195">
    <ele>224</ele>
    <time>2016-07-01T09:02:52Z</time>
    </trkpt>
    <trkpt lat="47.79147806" lon="7.50577889">
    <ele>226</ele>
    <time>2016-07-01T09:03:02Z</time>
    </trkpt>
    <trkpt lat="47.79153445" lon="7.50547528">
    <ele>226</ele>
    <time>2016-07-01T09:03:07Z</time>
    </trkpt>
    <trkpt lat="47.79155806" lon="7.50551862">
    <ele>226</ele>
    <time>2016-07-01T09:03:07Z</time>
    </trkpt>
    <trkpt lat="47.79197889" lon="7.50559528">
    <ele>225</ele>
    <time>2016-07-01T09:03:17Z</time>
    </trkpt>
    <trkpt lat="47.792755" lon="7.50592056">
    <ele>223</ele>
    <time>2016-07-01T09:03:36Z</time>
    </trkpt>
    <trkpt lat="47.79327973" lon="7.50626584">
    <ele>224</ele>
    <time>2016-07-01T09:03:50Z</time>
    </trkpt>
    <trkpt lat="47.79329695" lon="7.50627889">
    <ele>224</ele>
    <time>2016-07-01T09:03:50Z</time>
    </trkpt>
    <trkpt lat="47.79330917" lon="7.50595778">
    <ele>224</ele>
    <time>2016-07-01T09:03:55Z</time>
    </trkpt>
    <trkpt lat="47.79327528" lon="7.50508306">
    <ele>225</ele>
    <time>2016-07-01T09:04:09Z</time>
    </trkpt>
    <trkpt lat="47.79321278" lon="7.50405389">
    <ele>224</ele>
    <time>2016-07-01T09:04:26Z</time>
    </trkpt>
    <trkpt lat="47.79320917" lon="7.50410389">
    <ele>224</ele>
    <time>2016-07-01T09:04:27Z</time>
    </trkpt>
    <trkpt lat="47.79430084" lon="7.50432028">
    <ele>225</ele>
    <time>2016-07-01T09:04:52Z</time>
    </trkpt>
    <trkpt lat="47.79483056" lon="7.50445889">
    <ele>222</ele>
    <time>2016-07-01T09:05:05Z</time>
    </trkpt>
    <trkpt lat="47.79572917" lon="7.50464112">
    <ele>215</ele>
    <time>2016-07-01T09:05:26Z</time>
    </trkpt>
    <trkpt lat="47.79775251" lon="7.50497723">
    <ele>214</ele>
    <time>2016-07-01T09:06:14Z</time>
    </trkpt>
    <trkpt lat="47.79989667" lon="7.50524389">
    <ele>228</ele>
    <time>2016-07-01T09:07:05Z</time>
    </trkpt>
    <trkpt lat="47.80244306" lon="7.50553612">
    <ele>229</ele>
    <time>2016-07-01T09:08:05Z</time>
    </trkpt>
    <trkpt lat="47.80452334" lon="7.50582973">
    <ele>224</ele>
    <time>2016-07-01T09:08:54Z</time>
    </trkpt>
    <trkpt lat="47.80527806" lon="7.50584167">
    <ele>230</ele>
    <time>2016-07-01T09:09:12Z</time>
    </trkpt>
    <trkpt lat="47.80765223" lon="7.5059875">
    <ele>231</ele>
    <time>2016-07-01T09:10:08Z</time>
    </trkpt>
    <trkpt lat="47.80921889" lon="7.50611778">
    <ele>230</ele>
    <time>2016-07-01T09:10:45Z</time>
    </trkpt>
    <trkpt lat="47.81191723" lon="7.50615362">
    <ele>224</ele>
    <time>2016-07-01T09:11:49Z</time>
    </trkpt>
    <trkpt lat="47.81340584" lon="7.50621001">
    <ele>222</ele>
    <time>2016-07-01T09:12:24Z</time>
    </trkpt>
    <trkpt lat="47.81362362" lon="7.50622834">
    <ele>221</ele>
    <time>2016-07-01T09:12:29Z</time>
    </trkpt>
    <trkpt lat="47.81367112" lon="7.50621528">
    <ele>221</ele>
    <time>2016-07-01T09:12:30Z</time>
    </trkpt>
    <trkpt lat="47.81378528" lon="7.50632889">
    <ele>221</ele>
    <time>2016-07-01T09:12:33Z</time>
    </trkpt>
    <trkpt lat="47.81390306" lon="7.50640667">
    <ele>221</ele>
    <time>2016-07-01T09:12:36Z</time>
    </trkpt>
    <trkpt lat="47.81402251" lon="7.50642973">
    <ele>221</ele>
    <time>2016-07-01T09:12:39Z</time>
    </trkpt>
    <trkpt lat="47.81421945" lon="7.50619862">
    <ele>220</ele>
    <time>2016-07-01T09:12:45Z</time>
    </trkpt>
    <trkpt lat="47.81422612" lon="7.50616389">
    <ele>220</ele>
    <time>2016-07-01T09:12:45Z</time>
    </trkpt>
    <trkpt lat="47.81441223" lon="7.50625389">
    <ele>220</ele>
    <time>2016-07-01T09:12:50Z</time>
    </trkpt>
    <trkpt lat="47.81626195" lon="7.50648278">
    <ele>224</ele>
    <time>2016-07-01T09:13:34Z</time>
    </trkpt>
    <trkpt lat="47.81725889" lon="7.50656223">
    <ele>222</ele>
    <time>2016-07-01T09:13:57Z</time>
    </trkpt>
    <trkpt lat="47.8195875" lon="7.50680195">
    <ele>220</ele>
    <time>2016-07-01T09:14:52Z</time>
    </trkpt>
    <trkpt lat="47.81960001" lon="7.50683834">
    <ele>220</ele>
    <time>2016-07-01T09:14:53Z</time>
    </trkpt>
    <trkpt lat="47.82054834" lon="7.50703723">
    <ele>225</ele>
    <time>2016-07-01T09:15:15Z</time>
    </trkpt>
    <trkpt lat="47.82098" lon="7.50739139">
    <ele>225</ele>
    <time>2016-07-01T09:15:27Z</time>
    </trkpt>
    <trkpt lat="47.82156278" lon="7.50825139">
    <ele>226</ele>
    <time>2016-07-01T09:15:46Z</time>
    </trkpt>
    <trkpt lat="47.82194306" lon="7.50880889">
    <ele>226</ele>
    <time>2016-07-01T09:15:59Z</time>
    </trkpt>
    <trkpt lat="47.82305945" lon="7.51043806">
    <ele>225</ele>
    <time>2016-07-01T09:16:36Z</time>
    </trkpt>
    <trkpt lat="47.82376973" lon="7.51167889">
    <ele>219</ele>
    <time>2016-07-01T09:17:02Z</time>
    </trkpt>
    <trkpt lat="47.8240625" lon="7.51251667">
    <ele>220</ele>
    <time>2016-07-01T09:17:17Z</time>
    </trkpt>
    <trkpt lat="47.82436667" lon="7.51353834">
    <ele>219</ele>
    <time>2016-07-01T09:17:34Z</time>
    </trkpt>
    <trkpt lat="47.82438695" lon="7.51356334">
    <ele>219</ele>
    <time>2016-07-01T09:17:35Z</time>
    </trkpt>
    <trkpt lat="47.82466389" lon="7.51398612">
    <ele>218</ele>
    <time>2016-07-01T09:17:44Z</time>
    </trkpt>
    <trkpt lat="47.82496278" lon="7.51424584">
    <ele>218</ele>
    <time>2016-07-01T09:17:52Z</time>
    </trkpt>
    <trkpt lat="47.82546973" lon="7.51437862">
    <ele>219</ele>
    <time>2016-07-01T09:18:05Z</time>
    </trkpt>
    <trkpt lat="47.82610195" lon="7.51453389">
    <ele>217</ele>
    <time>2016-07-01T09:18:20Z</time>
    </trkpt>
    <trkpt lat="47.82671667" lon="7.51463306">
    <ele>215</ele>
    <time>2016-07-01T09:18:34Z</time>
    </trkpt>
    <trkpt lat="47.82775417" lon="7.51474112">
    <ele>217</ele>
    <time>2016-07-01T09:18:59Z</time>
    </trkpt>
    <trkpt lat="47.82826084" lon="7.51467334">
    <ele>216</ele>
    <time>2016-07-01T09:19:11Z</time>
    </trkpt>
    <trkpt lat="47.82911139" lon="7.51444889">
    <ele>218</ele>
    <time>2016-07-01T09:19:31Z</time>
    </trkpt>
    <trkpt lat="47.83014917" lon="7.51419528">
    <ele>219</ele>
    <time>2016-07-01T09:19:56Z</time>
    </trkpt>
    <trkpt lat="47.83164973" lon="7.51424806">
    <ele>220</ele>
    <time>2016-07-01T09:20:31Z</time>
    </trkpt>
    <trkpt lat="47.83169723" lon="7.51434945">
    <ele>219</ele>
    <time>2016-07-01T09:20:33Z</time>
    </trkpt>
    <trkpt lat="47.83183278" lon="7.51440445">
    <ele>219</ele>
    <time>2016-07-01T09:20:36Z</time>
    </trkpt>
    <trkpt lat="47.83195028" lon="7.51427139">
    <ele>219</ele>
    <time>2016-07-01T09:20:40Z</time>
    </trkpt>
    <trkpt lat="47.83191639" lon="7.5141075">
    <ele>219</ele>
    <time>2016-07-01T09:20:43Z</time>
    </trkpt>
    <trkpt lat="47.83191667" lon="7.51413112">
    <ele>219</ele>
    <time>2016-07-01T09:20:43Z</time>
    </trkpt>
    <trkpt lat="47.83209278" lon="7.51404028">
    <ele>219</ele>
    <time>2016-07-01T09:20:47Z</time>
    </trkpt>
    <trkpt lat="47.832345" lon="7.51413028">
    <ele>219</ele>
    <time>2016-07-01T09:20:53Z</time>
    </trkpt>
    <trkpt lat="47.83332778" lon="7.51388612">
    <ele>217</ele>
    <time>2016-07-01T09:21:17Z</time>
    </trkpt>
    <trkpt lat="47.83564389" lon="7.51309806">
    <ele>211</ele>
    <time>2016-07-01T09:22:13Z</time>
    </trkpt>
    <trkpt lat="47.83598889" lon="7.5129775">
    <ele>212</ele>
    <time>2016-07-01T09:22:21Z</time>
    </trkpt>
    <trkpt lat="47.83664362" lon="7.51281528">
    <ele>212</ele>
    <time>2016-07-01T09:22:37Z</time>
    </trkpt>
    <trkpt lat="47.83836528" lon="7.51280973">
    <ele>217</ele>
    <time>2016-07-01T09:23:17Z</time>
    </trkpt>
    <trkpt lat="47.83880501" lon="7.51287334">
    <ele>219</ele>
    <time>2016-07-01T09:23:28Z</time>
    </trkpt>
    <trkpt lat="47.83927139" lon="7.51311028">
    <ele>218</ele>
    <time>2016-07-01T09:23:39Z</time>
    </trkpt>
    <trkpt lat="47.84036306" lon="7.51384528">
    <ele>213</ele>
    <time>2016-07-01T09:24:08Z</time>
    </trkpt>
    <trkpt lat="47.84092723" lon="7.51436612">
    <ele>212</ele>
    <time>2016-07-01T09:24:23Z</time>
    </trkpt>
    <trkpt lat="47.84313889" lon="7.51514834">
    <ele>209</ele>
    <time>2016-07-01T09:25:17Z</time>
    </trkpt>
    <trkpt lat="47.84482584" lon="7.51570751">
    <ele>213</ele>
    <time>2016-07-01T09:25:57Z</time>
    </trkpt>
    <trkpt lat="47.84542334" lon="7.51587917">
    <ele>215</ele>
    <time>2016-07-01T09:26:12Z</time>
    </trkpt>
    <trkpt lat="47.84559084" lon="7.51594501">
    <ele>215</ele>
    <time>2016-07-01T09:26:16Z</time>
    </trkpt>
    <trkpt lat="47.84556139" lon="7.51613445">
    <ele>215</ele>
    <time>2016-07-01T09:26:19Z</time>
    </trkpt>
    <trkpt lat="47.84559195" lon="7.51613362">
    <ele>215</ele>
    <time>2016-07-01T09:26:20Z</time>
    </trkpt>
    <trkpt lat="47.84666667" lon="7.51650667">
    <ele>216</ele>
    <time>2016-07-01T09:26:46Z</time>
    </trkpt>
    <trkpt lat="47.84666667" lon="7.51650667">
    <ele>216</ele>
    <time>2016-07-01T09:26:46Z</time>
    </trkpt>
    <trkpt lat="47.84700112" lon="7.51663862">
    <ele>216</ele>
    <time>2016-07-01T09:26:54Z</time>
    </trkpt>
    <trkpt lat="47.847215" lon="7.51672389">
    <ele>216</ele>
    <time>2016-07-01T09:26:59Z</time>
    </trkpt>
    <trkpt lat="47.84738612" lon="7.51686806">
    <ele>216</ele>
    <time>2016-07-01T09:27:04Z</time>
    </trkpt>
    <trkpt lat="47.84749889" lon="7.51686473">
    <ele>216</ele>
    <time>2016-07-01T09:27:06Z</time>
    </trkpt>
    <trkpt lat="47.84763556" lon="7.51674917">
    <ele>215</ele>
    <time>2016-07-01T09:27:10Z</time>
    </trkpt>
    <trkpt lat="47.84765917" lon="7.51672501">
    <ele>215</ele>
    <time>2016-07-01T09:27:11Z</time>
    </trkpt>
    <trkpt lat="47.84842084" lon="7.51693723">
    <ele>214</ele>
    <time>2016-07-01T09:27:29Z</time>
    </trkpt>
    <trkpt lat="47.849185" lon="7.51717167">
    <ele>213</ele>
    <time>2016-07-01T09:27:47Z</time>
    </trkpt>
    <trkpt lat="47.84904139" lon="7.51712278">
    <ele>214</ele>
    <time>2016-07-01T09:27:51Z</time>
    </trkpt>
    <trkpt lat="47.84993445" lon="7.51741084">
    <ele>213</ele>
    <time>2016-07-01T09:28:12Z</time>
    </trkpt>
    <trkpt lat="47.85101417" lon="7.51749695">
    <ele>210</ele>
    <time>2016-07-01T09:28:38Z</time>
    </trkpt>
    <trkpt lat="47.85250389" lon="7.51761362">
    <ele>216</ele>
    <time>2016-07-01T09:29:13Z</time>
    </trkpt>
    <trkpt lat="47.85250389" lon="7.51761362">
    <ele>216</ele>
    <time>2016-07-01T09:29:13Z</time>
    </trkpt>
    <trkpt lat="47.85293723" lon="7.51758639">
    <ele>216</ele>
    <time>2016-07-01T09:29:23Z</time>
    </trkpt>
    <trkpt lat="47.85288223" lon="7.51762362">
    <ele>216</ele>
    <time>2016-07-01T09:29:24Z</time>
    </trkpt>
    <trkpt lat="47.85294639" lon="7.51766917">
    <ele>217</ele>
    <time>2016-07-01T09:29:26Z</time>
    </trkpt>
    <trkpt lat="47.85493917" lon="7.51773223">
    <ele>213</ele>
    <time>2016-07-01T09:30:13Z</time>
    </trkpt>
    <trkpt lat="47.85626612" lon="7.51788084">
    <ele>214</ele>
    <time>2016-07-01T09:30:44Z</time>
    </trkpt>
    <trkpt lat="47.85736028" lon="7.51826389">
    <ele>219</ele>
    <time>2016-07-01T09:31:11Z</time>
    </trkpt>
    <trkpt lat="47.85812056" lon="7.51870778">
    <ele>220</ele>
    <time>2016-07-01T09:31:30Z</time>
    </trkpt>
    <trkpt lat="47.85894695" lon="7.51930084">
    <ele>216</ele>
    <time>2016-07-01T09:31:52Z</time>
    </trkpt>
    <trkpt lat="47.85954362" lon="7.51967862">
    <ele>213</ele>
    <time>2016-07-01T09:32:07Z</time>
    </trkpt>
    <trkpt lat="47.86043001" lon="7.51992723">
    <ele>216</ele>
    <time>2016-07-01T09:32:28Z</time>
    </trkpt>
    <trkpt lat="47.86143195" lon="7.52037528">
    <ele>223</ele>
    <time>2016-07-01T09:32:53Z</time>
    </trkpt>
    <trkpt lat="47.86327362" lon="7.52158417">
    <ele>214</ele>
    <time>2016-07-01T09:33:40Z</time>
    </trkpt>
    <trkpt lat="47.86369028" lon="7.52184417">
    <ele>210</ele>
    <time>2016-07-01T09:33:51Z</time>
    </trkpt>
    <trkpt lat="47.86419251" lon="7.52201862">
    <ele>209</ele>
    <time>2016-07-01T09:34:03Z</time>
    </trkpt>
    <trkpt lat="47.8644475" lon="7.52209417">
    <ele>210</ele>
    <time>2016-07-01T09:34:09Z</time>
    </trkpt>
    <trkpt lat="47.86486917" lon="7.52210195">
    <ele>212</ele>
    <time>2016-07-01T09:34:19Z</time>
    </trkpt>
    <trkpt lat="47.86542112" lon="7.52201584">
    <ele>211</ele>
    <time>2016-07-01T09:34:32Z</time>
    </trkpt>
    <trkpt lat="47.86658778" lon="7.521775">
    <ele>223</ele>
    <time>2016-07-01T09:35:00Z</time>
    </trkpt>
    <trkpt lat="47.8680575" lon="7.52194334">
    <ele>217</ele>
    <time>2016-07-01T09:35:34Z</time>
    </trkpt>
    <trkpt lat="47.8684625" lon="7.52203889">
    <ele>216</ele>
    <time>2016-07-01T09:35:44Z</time>
    </trkpt>
    <trkpt lat="47.86946195" lon="7.52252667">
    <ele>221</ele>
    <time>2016-07-01T09:36:09Z</time>
    </trkpt>
    <trkpt lat="47.87114584" lon="7.52334251">
    <ele>221</ele>
    <time>2016-07-01T09:36:51Z</time>
    </trkpt>
    <trkpt lat="47.87231223" lon="7.52393473">
    <ele>223</ele>
    <time>2016-07-01T09:37:20Z</time>
    </trkpt>
    <trkpt lat="47.87270223" lon="7.52418112">
    <ele>218</ele>
    <time>2016-07-01T09:37:30Z</time>
    </trkpt>
    <trkpt lat="47.87460362" lon="7.52560362">
    <ele>209</ele>
    <time>2016-07-01T09:38:20Z</time>
    </trkpt>
    <trkpt lat="47.87559139" lon="7.52630556">
    <ele>216</ele>
    <time>2016-07-01T09:38:45Z</time>
    </trkpt>
    <trkpt lat="47.87621389" lon="7.52679639">
    <ele>216</ele>
    <time>2016-07-01T09:39:02Z</time>
    </trkpt>
    <trkpt lat="47.87857195" lon="7.528515">
    <ele>208</ele>
    <time>2016-07-01T09:40:04Z</time>
    </trkpt>
    <trkpt lat="47.88124195" lon="7.53040917">
    <ele>210</ele>
    <time>2016-07-01T09:41:14Z</time>
    </trkpt>
    <trkpt lat="47.88128167" lon="7.53027695">
    <ele>209</ele>
    <time>2016-07-01T09:41:16Z</time>
    </trkpt>
    <trkpt lat="47.88210501" lon="7.53080667">
    <ele>212</ele>
    <time>2016-07-01T09:41:37Z</time>
    </trkpt>
    <trkpt lat="47.88290028" lon="7.53168751">
    <ele>210</ele>
    <time>2016-07-01T09:42:00Z</time>
    </trkpt>
    <trkpt lat="47.88343806" lon="7.53270084">
    <ele>210</ele>
    <time>2016-07-01T09:42:21Z</time>
    </trkpt>
    <trkpt lat="47.88381862" lon="7.53337389">
    <ele>211</ele>
    <time>2016-07-01T09:42:35Z</time>
    </trkpt>
    <trkpt lat="47.88385917" lon="7.53353056">
    <ele>211</ele>
    <time>2016-07-01T09:42:37Z</time>
    </trkpt>
    <trkpt lat="47.88393612" lon="7.53373084">
    <ele>213</ele>
    <time>2016-07-01T09:42:41Z</time>
    </trkpt>
    <trkpt lat="47.88409112" lon="7.53382001">
    <ele>214</ele>
    <time>2016-07-01T09:42:45Z</time>
    </trkpt>
    <trkpt lat="47.88411195" lon="7.53384056">
    <ele>214</ele>
    <time>2016-07-01T09:42:45Z</time>
    </trkpt>
    <trkpt lat="47.88430973" lon="7.53409084">
    <ele>215</ele>
    <time>2016-07-01T09:42:52Z</time>
    </trkpt>
    <trkpt lat="47.88462195" lon="7.53435584">
    <ele>215</ele>
    <time>2016-07-01T09:43:00Z</time>
    </trkpt>
    <trkpt lat="47.88505362" lon="7.53475223">
    <ele>217</ele>
    <time>2016-07-01T09:43:12Z</time>
    </trkpt>
    <trkpt lat="47.88568667" lon="7.53526862">
    <ele>214</ele>
    <time>2016-07-01T09:43:29Z</time>
    </trkpt>
    <trkpt lat="47.88610806" lon="7.53559334">
    <ele>214</ele>
    <time>2016-07-01T09:43:40Z</time>
    </trkpt>
    <trkpt lat="47.88671251" lon="7.53600889">
    <ele>211</ele>
    <time>2016-07-01T09:43:56Z</time>
    </trkpt>
    <trkpt lat="47.88704278" lon="7.53622084">
    <ele>209</ele>
    <time>2016-07-01T09:44:04Z</time>
    </trkpt>
    <trkpt lat="47.88735584" lon="7.53633028">
    <ele>210</ele>
    <time>2016-07-01T09:44:12Z</time>
    </trkpt>
    <trkpt lat="47.88814278" lon="7.53631501">
    <ele>211</ele>
    <time>2016-07-01T09:44:30Z</time>
    </trkpt>
    <trkpt lat="47.88882056" lon="7.53625973">
    <ele>211</ele>
    <time>2016-07-01T09:44:46Z</time>
    </trkpt>
    <trkpt lat="47.88954306" lon="7.53629084">
    <ele>210</ele>
    <time>2016-07-01T09:45:03Z</time>
    </trkpt>
    <trkpt lat="47.8895275" lon="7.53632639">
    <ele>210</ele>
    <time>2016-07-01T09:45:04Z</time>
    </trkpt>
    <trkpt lat="47.88967028" lon="7.53642112">
    <ele>210</ele>
    <time>2016-07-01T09:45:08Z</time>
    </trkpt>
    <trkpt lat="47.89013889" lon="7.53645501">
    <ele>211</ele>
    <time>2016-07-01T09:45:19Z</time>
    </trkpt>
    <trkpt lat="47.89287584" lon="7.53673612">
    <ele>212</ele>
    <time>2016-07-01T09:46:23Z</time>
    </trkpt>
    <trkpt lat="47.89420778" lon="7.53688306">
    <ele>213</ele>
    <time>2016-07-01T09:46:55Z</time>
    </trkpt>
    <trkpt lat="47.89628223" lon="7.53711973">
    <ele>203</ele>
    <time>2016-07-01T09:47:44Z</time>
    </trkpt>
    <trkpt lat="47.89825806" lon="7.53738556">
    <ele>209</ele>
    <time>2016-07-01T09:48:31Z</time>
    </trkpt>
    <trkpt lat="47.89900806" lon="7.53751945">
    <ele>213</ele>
    <time>2016-07-01T09:48:48Z</time>
    </trkpt>
    <trkpt lat="47.90224917" lon="7.53792862">
    <ele>213</ele>
    <time>2016-07-01T09:50:05Z</time>
    </trkpt>
    <trkpt lat="47.90359556" lon="7.53807028">
    <ele>209</ele>
    <time>2016-07-01T09:50:37Z</time>
    </trkpt>
    <trkpt lat="47.90460528" lon="7.53823084">
    <ele>206</ele>
    <time>2016-07-01T09:51:01Z</time>
    </trkpt>
    <trkpt lat="47.90576806" lon="7.53833528">
    <ele>205</ele>
    <time>2016-07-01T09:51:28Z</time>
    </trkpt>
    <trkpt lat="47.90574612" lon="7.53833834">
    <ele>205</ele>
    <time>2016-07-01T09:51:29Z</time>
    </trkpt>
    <trkpt lat="47.9075825" lon="7.53853612">
    <ele>207</ele>
    <time>2016-07-01T09:52:12Z</time>
    </trkpt>
    <trkpt lat="47.90759167" lon="7.53854028">
    <ele>207</ele>
    <time>2016-07-01T09:52:12Z</time>
    </trkpt>
    <trkpt lat="47.90888112" lon="7.53868862">
    <ele>209</ele>
    <time>2016-07-01T09:52:43Z</time>
    </trkpt>
    <trkpt lat="47.90979306" lon="7.53881362">
    <ele>206</ele>
    <time>2016-07-01T09:53:04Z</time>
    </trkpt>
    <trkpt lat="47.91068139" lon="7.53887834">
    <ele>207</ele>
    <time>2016-07-01T09:53:25Z</time>
    </trkpt>
    <trkpt lat="47.91069306" lon="7.53886695">
    <ele>207</ele>
    <time>2016-07-01T09:53:25Z</time>
    </trkpt>
    <trkpt lat="47.91051778" lon="7.53709056">
    <ele>207</ele>
    <time>2016-07-01T09:53:54Z</time>
    </trkpt>
    <trkpt lat="47.91032667" lon="7.53504501">
    <ele>206</ele>
    <time>2016-07-01T09:54:26Z</time>
    </trkpt>
    <trkpt lat="47.91031473" lon="7.53503945">
    <ele>206</ele>
    <time>2016-07-01T09:54:27Z</time>
    </trkpt>
    <trkpt lat="47.90979112" lon="7.52988167">
    <ele>207</ele>
    <time>2016-07-01T09:55:49Z</time>
    </trkpt>
    <trkpt lat="47.90979834" lon="7.52988334">
    <ele>207</ele>
    <time>2016-07-01T09:55:50Z</time>
    </trkpt>
    <trkpt lat="47.91202945" lon="7.53042639">
    <ele>211</ele>
    <time>2016-07-01T09:56:43Z</time>
    </trkpt>
    <trkpt lat="47.91381917" lon="7.53088806">
    <ele>210</ele>
    <time>2016-07-01T09:57:26Z</time>
    </trkpt>
    <trkpt lat="47.91779612" lon="7.53200417">
    <ele>211</ele>
    <time>2016-07-01T09:59:01Z</time>
    </trkpt>
    <trkpt lat="47.91772667" lon="7.53197278">
    <ele>210</ele>
    <time>2016-07-01T09:59:03Z</time>
    </trkpt>
    <trkpt lat="47.91967112" lon="7.53249667">
    <ele>209</ele>
    <time>2016-07-01T09:59:49Z</time>
    </trkpt>
    <trkpt lat="47.92149973" lon="7.53296667">
    <ele>204</ele>
    <time>2016-07-01T10:00:33Z</time>
    </trkpt>
    <trkpt lat="47.92254306" lon="7.53324445">
    <ele>205</ele>
    <time>2016-07-01T10:00:58Z</time>
    </trkpt>
    <trkpt lat="47.92339639" lon="7.53347112">
    <ele>206</ele>
    <time>2016-07-01T10:01:18Z</time>
    </trkpt>
    <trkpt lat="47.92657306" lon="7.53432167">
    <ele>205</ele>
    <time>2016-07-01T10:02:34Z</time>
    </trkpt>
    <trkpt lat="47.92687501" lon="7.53438528">
    <ele>205</ele>
    <time>2016-07-01T10:02:41Z</time>
    </trkpt>
    <trkpt lat="47.92817473" lon="7.53488001">
    <ele>205</ele>
    <time>2016-07-01T10:03:13Z</time>
    </trkpt>
    <trkpt lat="47.92987667" lon="7.53567056">
    <ele>206</ele>
    <time>2016-07-01T10:03:55Z</time>
    </trkpt>
    <trkpt lat="47.92982612" lon="7.53566945">
    <ele>205</ele>
    <time>2016-07-01T10:03:56Z</time>
    </trkpt>
    <trkpt lat="47.93242473" lon="7.53689334">
    <ele>205</ele>
    <time>2016-07-01T10:05:00Z</time>
    </trkpt>
    <trkpt lat="47.93415306" lon="7.53770417">
    <ele>205</ele>
    <time>2016-07-01T10:05:43Z</time>
    </trkpt>
    <trkpt lat="47.93488973" lon="7.53806806">
    <ele>204</ele>
    <time>2016-07-01T10:06:01Z</time>
    </trkpt>
    <trkpt lat="47.93606889" lon="7.53862695">
    <ele>207</ele>
    <time>2016-07-01T10:06:30Z</time>
    </trkpt>
    <trkpt lat="47.93714917" lon="7.53911445">
    <ele>207</ele>
    <time>2016-07-01T10:06:57Z</time>
    </trkpt>
    <trkpt lat="47.93886056" lon="7.53994889">
    <ele>204</ele>
    <time>2016-07-01T10:07:39Z</time>
    </trkpt>
    <trkpt lat="47.93883778" lon="7.53993223">
    <ele>204</ele>
    <time>2016-07-01T10:07:40Z</time>
    </trkpt>
    <trkpt lat="47.94196056" lon="7.54142306">
    <ele>206</ele>
    <time>2016-07-01T10:08:57Z</time>
    </trkpt>
    <trkpt lat="47.94299389" lon="7.54189112">
    <ele>201</ele>
    <time>2016-07-01T10:09:22Z</time>
    </trkpt>
    <trkpt lat="47.94419751" lon="7.54245945">
    <ele>197</ele>
    <time>2016-07-01T10:09:52Z</time>
    </trkpt>
    <trkpt lat="47.9442825" lon="7.54244001">
    <ele>197</ele>
    <time>2016-07-01T10:09:54Z</time>
    </trkpt>
    <trkpt lat="47.94464501" lon="7.54191556">
    <ele>199</ele>
    <time>2016-07-01T10:10:06Z</time>
    </trkpt>
    <trkpt lat="47.945175" lon="7.54116834">
    <ele>200</ele>
    <time>2016-07-01T10:10:23Z</time>
    </trkpt>
    <trkpt lat="47.94556612" lon="7.54058001">
    <ele>200</ele>
    <time>2016-07-01T10:10:36Z</time>
    </trkpt>
    <trkpt lat="47.94579723" lon="7.54017028">
    <ele>200</ele>
    <time>2016-07-01T10:10:45Z</time>
    </trkpt>
    <trkpt lat="47.94595167" lon="7.53969139">
    <ele>199</ele>
    <time>2016-07-01T10:10:53Z</time>
    </trkpt>
    <trkpt lat="47.94614945" lon="7.53914445">
    <ele>199</ele>
    <time>2016-07-01T10:11:03Z</time>
    </trkpt>
    <trkpt lat="47.94647778" lon="7.53856112">
    <ele>200</ele>
    <time>2016-07-01T10:11:15Z</time>
    </trkpt>
    <trkpt lat="47.94687889" lon="7.53803056">
    <ele>201</ele>
    <time>2016-07-01T10:11:28Z</time>
    </trkpt>
    <trkpt lat="47.94748112" lon="7.53754056">
    <ele>202</ele>
    <time>2016-07-01T10:11:44Z</time>
    </trkpt>
    <trkpt lat="47.94795056" lon="7.53727362">
    <ele>204</ele>
    <time>2016-07-01T10:11:56Z</time>
    </trkpt>
    <trkpt lat="47.94832973" lon="7.53711028">
    <ele>204</ele>
    <time>2016-07-01T10:12:05Z</time>
    </trkpt>
    <trkpt lat="47.94890084" lon="7.53695834">
    <ele>204</ele>
    <time>2016-07-01T10:12:19Z</time>
    </trkpt>
    <trkpt lat="47.94954945" lon="7.53692223">
    <ele>203</ele>
    <time>2016-07-01T10:12:34Z</time>
    </trkpt>
    <trkpt lat="47.94988917" lon="7.53697556">
    <ele>204</ele>
    <time>2016-07-01T10:12:42Z</time>
    </trkpt>
    <trkpt lat="47.9504725" lon="7.53723139">
    <ele>207</ele>
    <time>2016-07-01T10:12:56Z</time>
    </trkpt>
    <trkpt lat="47.95130167" lon="7.53752778">
    <ele>208</ele>
    <time>2016-07-01T10:13:16Z</time>
    </trkpt>
    <trkpt lat="47.95193834" lon="7.53755167">
    <ele>208</ele>
    <time>2016-07-01T10:13:31Z</time>
    </trkpt>
    <trkpt lat="47.9533175" lon="7.53741834">
    <ele>208</ele>
    <time>2016-07-01T10:14:04Z</time>
    </trkpt>
    <trkpt lat="47.95373001" lon="7.53740667">
    <ele>206</ele>
    <time>2016-07-01T10:14:14Z</time>
    </trkpt>
    <trkpt lat="47.95416556" lon="7.53744806">
    <ele>205</ele>
    <time>2016-07-01T10:14:24Z</time>
    </trkpt>
    <trkpt lat="47.95501778" lon="7.53755945">
    <ele>209</ele>
    <time>2016-07-01T10:14:44Z</time>
    </trkpt>
    <trkpt lat="47.95619417" lon="7.53776667">
    <ele>213</ele>
    <time>2016-07-01T10:15:12Z</time>
    </trkpt>
    <trkpt lat="47.95737528" lon="7.53800695">
    <ele>201</ele>
    <time>2016-07-01T10:15:40Z</time>
    </trkpt>
    <trkpt lat="47.95783556" lon="7.53803639">
    <ele>204</ele>
    <time>2016-07-01T10:15:51Z</time>
    </trkpt>
    <trkpt lat="47.95860417" lon="7.53791001">
    <ele>207</ele>
    <time>2016-07-01T10:16:09Z</time>
    </trkpt>
    <trkpt lat="47.95938334" lon="7.53761362">
    <ele>205</ele>
    <time>2016-07-01T10:16:28Z</time>
    </trkpt>
    <trkpt lat="47.96008362" lon="7.53733778">
    <ele>203</ele>
    <time>2016-07-01T10:16:45Z</time>
    </trkpt>
    <trkpt lat="47.961315" lon="7.53679973">
    <ele>207</ele>
    <time>2016-07-01T10:17:15Z</time>
    </trkpt>
    <trkpt lat="47.96266306" lon="7.53613334">
    <ele>208</ele>
    <time>2016-07-01T10:17:49Z</time>
    </trkpt>
    <trkpt lat="47.96336306" lon="7.53603584">
    <ele>204</ele>
    <time>2016-07-01T10:18:05Z</time>
    </trkpt>
    <trkpt lat="47.96393417" lon="7.53599584">
    <ele>203</ele>
    <time>2016-07-01T10:18:19Z</time>
    </trkpt>
    <trkpt lat="47.96438973" lon="7.53602389">
    <ele>203</ele>
    <time>2016-07-01T10:18:29Z</time>
    </trkpt>
    <trkpt lat="47.96436223" lon="7.53609334">
    <ele>203</ele>
    <time>2016-07-01T10:18:31Z</time>
    </trkpt>
    <trkpt lat="47.96513473" lon="7.53618667">
    <ele>206</ele>
    <time>2016-07-01T10:18:49Z</time>
    </trkpt>
    <trkpt lat="47.96597501" lon="7.53632862">
    <ele>203</ele>
    <time>2016-07-01T10:19:09Z</time>
    </trkpt>
    <trkpt lat="47.96655778" lon="7.53635889">
    <ele>201</ele>
    <time>2016-07-01T10:19:23Z</time>
    </trkpt>
    <trkpt lat="47.96747695" lon="7.53640973">
    <ele>203</ele>
    <time>2016-07-01T10:19:44Z</time>
    </trkpt>
    <trkpt lat="47.96816112" lon="7.53651">
    <ele>203</ele>
    <time>2016-07-01T10:20:00Z</time>
    </trkpt>
    <trkpt lat="47.96878334" lon="7.53690056">
    <ele>201</ele>
    <time>2016-07-01T10:20:16Z</time>
    </trkpt>
    <trkpt lat="47.969215" lon="7.53750112">
    <ele>200</ele>
    <time>2016-07-01T10:20:30Z</time>
    </trkpt>
    <trkpt lat="47.96943139" lon="7.53785278">
    <ele>199</ele>
    <time>2016-07-01T10:20:38Z</time>
    </trkpt>
    <trkpt lat="47.96977723" lon="7.53855223">
    <ele>199</ele>
    <time>2016-07-01T10:20:52Z</time>
    </trkpt>
    <trkpt lat="47.96982862" lon="7.53896112">
    <ele>199</ele>
    <time>2016-07-01T10:20:58Z</time>
    </trkpt>
    <trkpt lat="47.96994417" lon="7.53930084">
    <ele>203</ele>
    <time>2016-07-01T10:21:04Z</time>
    </trkpt>
    <trkpt lat="47.96992195" lon="7.53929223">
    <ele>203</ele>
    <time>2016-07-01T10:21:05Z</time>
    </trkpt>
    <trkpt lat="47.969635" lon="7.54047056">
    <ele>202</ele>
    <time>2016-07-01T10:21:24Z</time>
    </trkpt>
    <trkpt lat="47.96914195" lon="7.54225139">
    <ele>199</ele>
    <time>2016-07-01T10:21:55Z</time>
    </trkpt>
    <trkpt lat="47.96908334" lon="7.54371834">
    <ele>201</ele>
    <time>2016-07-01T10:22:18Z</time>
    </trkpt>
    <trkpt lat="47.96905445" lon="7.54632501">
    <ele>197</ele>
    <time>2016-07-01T10:22:59Z</time>
    </trkpt>
    <trkpt lat="47.96901556" lon="7.54632">
    <ele>197</ele>
    <time>2016-07-01T10:23:00Z</time>
    </trkpt>
    <trkpt lat="47.96891528" lon="7.54723028">
    <ele>197</ele>
    <time>2016-07-01T10:23:15Z</time>
    </trkpt>
    <trkpt lat="47.96886028" lon="7.54771028">
    <ele>197</ele>
    <time>2016-07-01T10:23:23Z</time>
    </trkpt>
    <trkpt lat="47.96871417" lon="7.54856806">
    <ele>199</ele>
    <time>2016-07-01T10:23:37Z</time>
    </trkpt>
    <trkpt lat="47.96822084" lon="7.55004723">
    <ele>203</ele>
    <time>2016-07-01T10:24:03Z</time>
    </trkpt>
    <trkpt lat="47.96750556" lon="7.55235112">
    <ele>201</ele>
    <time>2016-07-01T10:24:43Z</time>
    </trkpt>
    <trkpt lat="47.96749056" lon="7.55236917">
    <ele>199</ele>
    <time>2016-07-01T10:24:43Z</time>
    </trkpt>
    <trkpt lat="47.96765889" lon="7.55249417">
    <ele>202</ele>
    <time>2016-07-01T10:24:48Z</time>
    </trkpt>
    <trkpt lat="47.96996501" lon="7.55257473">
    <ele>200</ele>
    <time>2016-07-01T10:25:42Z</time>
    </trkpt>
    <trkpt lat="47.97238834" lon="7.55238445">
    <ele>200</ele>
    <time>2016-07-01T10:26:39Z</time>
    </trkpt>
    <trkpt lat="47.97474778" lon="7.55213389">
    <ele>207</ele>
    <time>2016-07-01T10:27:35Z</time>
    </trkpt>
    <trkpt lat="47.97678695" lon="7.55192806">
    <ele>197</ele>
    <time>2016-07-01T10:28:23Z</time>
    </trkpt>
    <trkpt lat="47.97999584" lon="7.55155167">
    <ele>195</ele>
    <time>2016-07-01T10:29:39Z</time>
    </trkpt>
    <trkpt lat="47.98196278" lon="7.55132278">
    <ele>196</ele>
    <time>2016-07-01T10:30:25Z</time>
    </trkpt>
    <trkpt lat="47.98312417" lon="7.55121001">
    <ele>200</ele>
    <time>2016-07-01T10:30:53Z</time>
    </trkpt>
    <trkpt lat="47.98475889" lon="7.55102112">
    <ele>193</ele>
    <time>2016-07-01T10:31:31Z</time>
    </trkpt>
    <trkpt lat="47.98647056" lon="7.55082167">
    <ele>197</ele>
    <time>2016-07-01T10:32:12Z</time>
    </trkpt>
    <trkpt lat="47.98756639" lon="7.55070139">
    <ele>202</ele>
    <time>2016-07-01T10:32:37Z</time>
    </trkpt>
    <trkpt lat="47.987565" lon="7.55068723">
    <ele>202</ele>
    <time>2016-07-01T10:32:38Z</time>
    </trkpt>
    <trkpt lat="47.98784889" lon="7.55062945">
    <ele>201</ele>
    <time>2016-07-01T10:32:44Z</time>
    </trkpt>
    <trkpt lat="47.98820528" lon="7.55057195">
    <ele>198</ele>
    <time>2016-07-01T10:32:53Z</time>
    </trkpt>
    <trkpt lat="47.98924167" lon="7.55049">
    <ele>200</ele>
    <time>2016-07-01T10:33:17Z</time>
    </trkpt>
    <trkpt lat="47.98942445" lon="7.55033723">
    <ele>201</ele>
    <time>2016-07-01T10:33:22Z</time>
    </trkpt>
    <trkpt lat="47.98941334" lon="7.55036084">
    <ele>201</ele>
    <time>2016-07-01T10:33:23Z</time>
    </trkpt>
    <trkpt lat="47.98967139" lon="7.55040112">
    <ele>204</ele>
    <time>2016-07-01T10:33:29Z</time>
    </trkpt>
    <trkpt lat="47.99178417" lon="7.55014223">
    <ele>198</ele>
    <time>2016-07-01T10:34:19Z</time>
    </trkpt>
    <trkpt lat="47.99280167" lon="7.55004139">
    <ele>196</ele>
    <time>2016-07-01T10:34:43Z</time>
    </trkpt>
    <trkpt lat="47.99383945" lon="7.54991639">
    <ele>194</ele>
    <time>2016-07-01T10:35:07Z</time>
    </trkpt>
    <trkpt lat="47.99607056" lon="7.54966889">
    <ele>194</ele>
    <time>2016-07-01T10:36:00Z</time>
    </trkpt>
    <trkpt lat="47.99857306" lon="7.54958112">
    <ele>205</ele>
    <time>2016-07-01T10:36:59Z</time>
    </trkpt>
    <trkpt lat="47.99971112" lon="7.54981223">
    <ele>200</ele>
    <time>2016-07-01T10:37:26Z</time>
    </trkpt>
    <trkpt lat="48.00017278" lon="7.54991751">
    <ele>196</ele>
    <time>2016-07-01T10:37:37Z</time>
    </trkpt>
    <trkpt lat="48.00080639" lon="7.55014834">
    <ele>198</ele>
    <time>2016-07-01T10:37:52Z</time>
    </trkpt>
    <trkpt lat="48.002635" lon="7.55122139">
    <ele>198</ele>
    <time>2016-07-01T10:38:39Z</time>
    </trkpt>
    <trkpt lat="48.00370112" lon="7.55218389">
    <ele>193</ele>
    <time>2016-07-01T10:39:08Z</time>
    </trkpt>
    <trkpt lat="48.00425556" lon="7.55274806">
    <ele>193</ele>
    <time>2016-07-01T10:39:24Z</time>
    </trkpt>
    <trkpt lat="48.00473834" lon="7.55324278">
    <ele>195</ele>
    <time>2016-07-01T10:39:37Z</time>
    </trkpt>
    <trkpt lat="48.00582417" lon="7.55446028">
    <ele>194</ele>
    <time>2016-07-01T10:40:09Z</time>
    </trkpt>
    <trkpt lat="48.00649084" lon="7.55521862">
    <ele>194</ele>
    <time>2016-07-01T10:40:29Z</time>
    </trkpt>
    <trkpt lat="48.00694028" lon="7.55570667">
    <ele>194</ele>
    <time>2016-07-01T10:40:42Z</time>
    </trkpt>
    <trkpt lat="48.00690112" lon="7.55564362">
    <ele>194</ele>
    <time>2016-07-01T10:40:44Z</time>
    </trkpt>
    <trkpt lat="48.0071525" lon="7.55540278">
    <ele>194</ele>
    <time>2016-07-01T10:40:51Z</time>
    </trkpt>
    <trkpt lat="48.00734362" lon="7.55488278">
    <ele>193</ele>
    <time>2016-07-01T10:41:00Z</time>
    </trkpt>
    <trkpt lat="48.00749723" lon="7.55426556">
    <ele>192</ele>
    <time>2016-07-01T10:41:10Z</time>
    </trkpt>
    <trkpt lat="48.00773889" lon="7.55330084">
    <ele>194</ele>
    <time>2016-07-01T10:41:27Z</time>
    </trkpt>
    <trkpt lat="48.00789667" lon="7.55260389">
    <ele>194</ele>
    <time>2016-07-01T10:41:38Z</time>
    </trkpt>
    <trkpt lat="48.00800584" lon="7.55168139">
    <ele>194</ele>
    <time>2016-07-01T10:41:53Z</time>
    </trkpt>
    <trkpt lat="48.00806084" lon="7.55039723">
    <ele>197</ele>
    <time>2016-07-01T10:42:13Z</time>
    </trkpt>
    <trkpt lat="48.00821556" lon="7.547745">
    <ele>192</ele>
    <time>2016-07-01T10:42:56Z</time>
    </trkpt>
    <trkpt lat="48.0082825" lon="7.54669806">
    <ele>190</ele>
    <time>2016-07-01T10:43:12Z</time>
    </trkpt>
    <trkpt lat="48.00839389" lon="7.54632389">
    <ele>189</ele>
    <time>2016-07-01T10:43:19Z</time>
    </trkpt>
    <trkpt lat="48.00851028" lon="7.54599639">
    <ele>189</ele>
    <time>2016-07-01T10:43:24Z</time>
    </trkpt>
    <trkpt lat="48.00879306" lon="7.54534528">
    <ele>189</ele>
    <time>2016-07-01T10:43:37Z</time>
    </trkpt>
    <trkpt lat="48.00877417" lon="7.54533056">
    <ele>189</ele>
    <time>2016-07-01T10:43:37Z</time>
    </trkpt>
    <trkpt lat="48.00893445" lon="7.54546334">
    <ele>190</ele>
    <time>2016-07-01T10:43:42Z</time>
    </trkpt>
    <trkpt lat="48.00919834" lon="7.54495139">
    <ele>190</ele>
    <time>2016-07-01T10:43:52Z</time>
    </trkpt>
    <trkpt lat="48.00920695" lon="7.54491973">
    <ele>190</ele>
    <time>2016-07-01T10:43:52Z</time>
    </trkpt>
    <trkpt lat="48.00974334" lon="7.54422167">
    <ele>193</ele>
    <time>2016-07-01T10:44:09Z</time>
    </trkpt>
    <trkpt lat="48.00976167" lon="7.54421084">
    <ele>193</ele>
    <time>2016-07-01T10:44:09Z</time>
    </trkpt>
    <trkpt lat="48.01001501" lon="7.54389639">
    <ele>194</ele>
    <time>2016-07-01T10:44:17Z</time>
    </trkpt>
    <trkpt lat="48.0102475" lon="7.54382334">
    <ele>195</ele>
    <time>2016-07-01T10:44:23Z</time>
    </trkpt>
    <trkpt lat="48.01025862" lon="7.54382167">
    <ele>195</ele>
    <time>2016-07-01T10:44:23Z</time>
    </trkpt>
    <trkpt lat="48.01029639" lon="7.54340723">
    <ele>197</ele>
    <time>2016-07-01T10:44:30Z</time>
    </trkpt>
    <trkpt lat="48.01062584" lon="7.54270528">
    <ele>198</ele>
    <time>2016-07-01T10:44:43Z</time>
    </trkpt>
    <trkpt lat="48.01079584" lon="7.54225862">
    <ele>198</ele>
    <time>2016-07-01T10:44:51Z</time>
    </trkpt>
    <trkpt lat="48.01096362" lon="7.542045">
    <ele>199</ele>
    <time>2016-07-01T10:44:57Z</time>
    </trkpt>
    <trkpt lat="48.01101417" lon="7.54181945">
    <ele>198</ele>
    <time>2016-07-01T10:45:00Z</time>
    </trkpt>
    <trkpt lat="48.01109028" lon="7.54161445">
    <ele>198</ele>
    <time>2016-07-01T10:45:04Z</time>
    </trkpt>
    <trkpt lat="48.01135028" lon="7.54103667">
    <ele>199</ele>
    <time>2016-07-01T10:45:15Z</time>
    </trkpt>
    <trkpt lat="48.01187445" lon="7.53986056">
    <ele>198</ele>
    <time>2016-07-01T10:45:37Z</time>
    </trkpt>
    <trkpt lat="48.01248195" lon="7.53853806">
    <ele>197</ele>
    <time>2016-07-01T10:46:03Z</time>
    </trkpt>
    <trkpt lat="48.0127575" lon="7.53808667">
    <ele>197</ele>
    <time>2016-07-01T10:46:12Z</time>
    </trkpt>
    <trkpt lat="48.01292251" lon="7.53804195">
    <ele>197</ele>
    <time>2016-07-01T10:46:16Z</time>
    </trkpt>
    <trkpt lat="48.01313945" lon="7.53803195">
    <ele>197</ele>
    <time>2016-07-01T10:46:21Z</time>
    </trkpt>
    <trkpt lat="48.01395501" lon="7.53804445">
    <ele>194</ele>
    <time>2016-07-01T10:46:41Z</time>
    </trkpt>
    <trkpt lat="48.01404917" lon="7.53807806">
    <ele>195</ele>
    <time>2016-07-01T10:46:43Z</time>
    </trkpt>
    <trkpt lat="48.01414834" lon="7.53819251">
    <ele>195</ele>
    <time>2016-07-01T10:46:46Z</time>
    </trkpt>
    <trkpt lat="48.01426001" lon="7.53820751">
    <ele>195</ele>
    <time>2016-07-01T10:46:48Z</time>
    </trkpt>
    <trkpt lat="48.01437723" lon="7.53799973">
    <ele>194</ele>
    <time>2016-07-01T10:46:53Z</time>
    </trkpt>
    <trkpt lat="48.01440834" lon="7.53792362">
    <ele>194</ele>
    <time>2016-07-01T10:46:54Z</time>
    </trkpt>
    <trkpt lat="48.01465056" lon="7.53798806">
    <ele>194</ele>
    <time>2016-07-01T10:47:00Z</time>
    </trkpt>
    <trkpt lat="48.01544612" lon="7.53809251">
    <ele>196</ele>
    <time>2016-07-01T10:47:19Z</time>
    </trkpt>
    <trkpt lat="48.01615167" lon="7.53827973">
    <ele>194</ele>
    <time>2016-07-01T10:47:36Z</time>
    </trkpt>
    <trkpt lat="48.01665417" lon="7.53843139">
    <ele>194</ele>
    <time>2016-07-01T10:47:48Z</time>
    </trkpt>
    <trkpt lat="48.01770473" lon="7.5386975">
    <ele>193</ele>
    <time>2016-07-01T10:48:13Z</time>
    </trkpt>
    <trkpt lat="48.01761834" lon="7.5386925">
    <ele>193</ele>
    <time>2016-07-01T10:48:15Z</time>
    </trkpt>
    <trkpt lat="48.01785556" lon="7.53872834">
    <ele>193</ele>
    <time>2016-07-01T10:48:20Z</time>
    </trkpt>
    <trkpt lat="48.01867501" lon="7.53894473">
    <ele>194</ele>
    <time>2016-07-01T10:48:40Z</time>
    </trkpt>
    <trkpt lat="48.01860139" lon="7.53886778">
    <ele>193</ele>
    <time>2016-07-01T10:48:42Z</time>
    </trkpt>
    <trkpt lat="48.01873973" lon="7.53697667">
    <ele>195</ele>
    <time>2016-07-01T10:49:12Z</time>
    </trkpt>
    <trkpt lat="48.01878556" lon="7.53593112">
    <ele>195</ele>
    <time>2016-07-01T10:49:29Z</time>
    </trkpt>
    <trkpt lat="48.01891112" lon="7.53496945">
    <ele>195</ele>
    <time>2016-07-01T10:49:44Z</time>
    </trkpt>
    <trkpt lat="48.01902223" lon="7.53436584">
    <ele>195</ele>
    <time>2016-07-01T10:49:54Z</time>
    </trkpt>
    <trkpt lat="48.01932028" lon="7.53341334">
    <ele>197</ele>
    <time>2016-07-01T10:50:11Z</time>
    </trkpt>
    <trkpt lat="48.01985195" lon="7.53223667">
    <ele>195</ele>
    <time>2016-07-01T10:50:33Z</time>
    </trkpt>
    <trkpt lat="48.02023139" lon="7.53128945">
    <ele>195</ele>
    <time>2016-07-01T10:50:50Z</time>
    </trkpt>
    <trkpt lat="48.020235" lon="7.531305">
    <ele>195</ele>
    <time>2016-07-01T10:50:51Z</time>
    </trkpt>
    <trkpt lat="48.01970334" lon="7.53067278">
    <ele>204</ele>
    <time>2016-07-01T10:51:07Z</time>
    </trkpt>
    <trkpt lat="48.01915389" lon="7.53005028">
    <ele>206</ele>
    <time>2016-07-01T10:51:23Z</time>
    </trkpt>
    <trkpt lat="48.01880834" lon="7.52957834">
    <ele>205</ele>
    <time>2016-07-01T10:51:34Z</time>
    </trkpt>
    <trkpt lat="48.01824751" lon="7.52872834">
    <ele>201</ele>
    <time>2016-07-01T10:51:53Z</time>
    </trkpt>
  </trkseg>
</trk>
</gpx>
